<?xml version="1.0" encoding="UTF-8" standalone="no" ?>
<gpx xmlns="http://www.topografix.com/GPX/1/1" xmlns:xsi="http://www.w3.org/2001/XMLSchema-instance" xsi:schemaLocation="http://www.topografix.com/GPX/1/1 http://www.topografix.com/GPX/1/1/gpx.xsd" version="1.1" creator="VisuGPX - https://www.visugpx.com">
  <metadata>
    <name>Reco_Explo_Falquet_15_07_2012</name>
    <desc><![CDATA[[b]Tout n\'est pas roulable ...[/b]]]></desc>
  </metadata>
  <trk>
    <name><![CDATA[Falquet_15_07_2012]]></name>
    <trkseg>
      <trkpt lat="42.94745" lon="1.46653">
        <ele>678.83</ele>
        <time>2012-07-15T07:12:40Z</time>
      </trkpt>
      <trkpt lat="42.94751" lon="1.46639">
        <ele>752.37</ele>
        <time>2012-07-15T07:18:54Z</time>
      </trkpt>
      <trkpt lat="42.94757" lon="1.46688">
        <ele>759.1</ele>
        <time>2012-07-15T07:19:14Z</time>
      </trkpt>
      <trkpt lat="42.94761" lon="1.46733">
        <ele>761.5</ele>
        <time>2012-07-15T07:19:32Z</time>
      </trkpt>
      <trkpt lat="42.94771" lon="1.46788">
        <ele>765.35</ele>
        <time>2012-07-15T07:19:55Z</time>
      </trkpt>
      <trkpt lat="42.94784" lon="1.46842">
        <ele>768.71</ele>
        <time>2012-07-15T07:20:16Z</time>
      </trkpt>
      <trkpt lat="42.94797" lon="1.46895">
        <ele>772.56</ele>
        <time>2012-07-15T07:22:30Z</time>
      </trkpt>
      <trkpt lat="42.94821" lon="1.46934">
        <ele>778.32</ele>
        <time>2012-07-15T07:22:49Z</time>
      </trkpt>
      <trkpt lat="42.94853" lon="1.46965">
        <ele>786.5</ele>
        <time>2012-07-15T07:23:12Z</time>
      </trkpt>
      <trkpt lat="42.94889" lon="1.46976">
        <ele>794.19</ele>
        <time>2012-07-15T07:23:41Z</time>
      </trkpt>
      <trkpt lat="42.9493" lon="1.46951">
        <ele>795.63</ele>
        <time>2012-07-15T07:24:07Z</time>
      </trkpt>
      <trkpt lat="42.94914" lon="1.46951">
        <ele>799.47</ele>
        <time>2012-07-15T07:24:26Z</time>
      </trkpt>
      <trkpt lat="42.94883" lon="1.46942">
        <ele>803.8</ele>
        <time>2012-07-15T07:24:42Z</time>
      </trkpt>
      <trkpt lat="42.94873" lon="1.46895">
        <ele>807.16</ele>
        <time>2012-07-15T07:24:56Z</time>
      </trkpt>
      <trkpt lat="42.94868" lon="1.46847">
        <ele>809.57</ele>
        <time>2012-07-15T07:25:11Z</time>
      </trkpt>
      <trkpt lat="42.94866" lon="1.46797">
        <ele>812.93</ele>
        <time>2012-07-15T07:25:26Z</time>
      </trkpt>
      <trkpt lat="42.94867" lon="1.46749">
        <ele>814.85</ele>
        <time>2012-07-15T07:25:40Z</time>
      </trkpt>
      <trkpt lat="42.94871" lon="1.46702">
        <ele>816.78</ele>
        <time>2012-07-15T07:25:53Z</time>
      </trkpt>
      <trkpt lat="42.94877" lon="1.46655">
        <ele>819.18</ele>
        <time>2012-07-15T07:26:07Z</time>
      </trkpt>
      <trkpt lat="42.94893" lon="1.46611">
        <ele>821.1</ele>
        <time>2012-07-15T07:26:20Z</time>
      </trkpt>
      <trkpt lat="42.94913" lon="1.46569">
        <ele>822.55</ele>
        <time>2012-07-15T07:26:33Z</time>
      </trkpt>
      <trkpt lat="42.94938" lon="1.46533">
        <ele>824.47</ele>
        <time>2012-07-15T07:26:45Z</time>
      </trkpt>
      <trkpt lat="42.94962" lon="1.46498">
        <ele>825.91</ele>
        <time>2012-07-15T07:26:56Z</time>
      </trkpt>
      <trkpt lat="42.94972" lon="1.4646">
        <ele>828.79</ele>
        <time>2012-07-15T07:27:08Z</time>
      </trkpt>
      <trkpt lat="42.94978" lon="1.46421">
        <ele>830.72</ele>
        <time>2012-07-15T07:27:21Z</time>
      </trkpt>
      <trkpt lat="42.94987" lon="1.46373">
        <ele>833.12</ele>
        <time>2012-07-15T07:27:36Z</time>
      </trkpt>
      <trkpt lat="42.95003" lon="1.46323">
        <ele>835.52</ele>
        <time>2012-07-15T07:27:51Z</time>
      </trkpt>
      <trkpt lat="42.95019" lon="1.4627">
        <ele>836.96</ele>
        <time>2012-07-15T07:28:04Z</time>
      </trkpt>
      <trkpt lat="42.95041" lon="1.46228">
        <ele>839.85</ele>
        <time>2012-07-15T07:28:18Z</time>
      </trkpt>
      <trkpt lat="42.95063" lon="1.46186">
        <ele>841.77</ele>
        <time>2012-07-15T07:28:33Z</time>
      </trkpt>
      <trkpt lat="42.95086" lon="1.46141">
        <ele>845.14</ele>
        <time>2012-07-15T07:28:48Z</time>
      </trkpt>
      <trkpt lat="42.95084" lon="1.46153">
        <ele>848.5</ele>
        <time>2012-07-15T07:29:04Z</time>
      </trkpt>
      <trkpt lat="42.95073" lon="1.46205">
        <ele>851.38</ele>
        <time>2012-07-15T07:29:21Z</time>
      </trkpt>
      <trkpt lat="42.9506" lon="1.46267">
        <ele>854.27</ele>
        <time>2012-07-15T07:29:40Z</time>
      </trkpt>
      <trkpt lat="42.95051" lon="1.46323">
        <ele>858.59</ele>
        <time>2012-07-15T07:29:57Z</time>
      </trkpt>
      <trkpt lat="42.95048" lon="1.4637">
        <ele>861.48</ele>
        <time>2012-07-15T07:30:12Z</time>
      </trkpt>
      <trkpt lat="42.95047" lon="1.46423">
        <ele>865.32</ele>
        <time>2012-07-15T07:30:30Z</time>
      </trkpt>
      <trkpt lat="42.95046" lon="1.46475">
        <ele>869.17</ele>
        <time>2012-07-15T07:30:47Z</time>
      </trkpt>
      <trkpt lat="42.95049" lon="1.46523">
        <ele>872.53</ele>
        <time>2012-07-15T07:31:03Z</time>
      </trkpt>
      <trkpt lat="42.95052" lon="1.46567">
        <ele>875.9</ele>
        <time>2012-07-15T07:31:19Z</time>
      </trkpt>
      <trkpt lat="42.95057" lon="1.46613">
        <ele>878.78</ele>
        <time>2012-07-15T07:31:34Z</time>
      </trkpt>
      <trkpt lat="42.95067" lon="1.46656">
        <ele>881.19</ele>
        <time>2012-07-15T07:31:50Z</time>
      </trkpt>
      <trkpt lat="42.95085" lon="1.46701">
        <ele>884.55</ele>
        <time>2012-07-15T07:32:06Z</time>
      </trkpt>
      <trkpt lat="42.95106" lon="1.46739">
        <ele>887.91</ele>
        <time>2012-07-15T07:32:22Z</time>
      </trkpt>
      <trkpt lat="42.95134" lon="1.46763">
        <ele>890.8</ele>
        <time>2012-07-15T07:32:37Z</time>
      </trkpt>
      <trkpt lat="42.95165" lon="1.46779">
        <ele>894.16</ele>
        <time>2012-07-15T07:32:52Z</time>
      </trkpt>
      <trkpt lat="42.95162" lon="1.46739">
        <ele>898.97</ele>
        <time>2012-07-15T07:33:11Z</time>
      </trkpt>
      <trkpt lat="42.95154" lon="1.46692">
        <ele>902.33</ele>
        <time>2012-07-15T07:33:30Z</time>
      </trkpt>
      <trkpt lat="42.95157" lon="1.46647">
        <ele>905.22</ele>
        <time>2012-07-15T07:33:46Z</time>
      </trkpt>
      <trkpt lat="42.9516" lon="1.46603">
        <ele>909.06</ele>
        <time>2012-07-15T07:34:03Z</time>
      </trkpt>
      <trkpt lat="42.95167" lon="1.46569">
        <ele>911.47</ele>
        <time>2012-07-15T07:34:20Z</time>
      </trkpt>
      <trkpt lat="42.95185" lon="1.46608">
        <ele>914.83</ele>
        <time>2012-07-15T07:34:34Z</time>
      </trkpt>
      <trkpt lat="42.95199" lon="1.46648">
        <ele>916.27</ele>
        <time>2012-07-15T07:34:47Z</time>
      </trkpt>
      <trkpt lat="42.95206" lon="1.46691">
        <ele>913.87</ele>
        <time>2012-07-15T07:34:54Z</time>
      </trkpt>
      <trkpt lat="42.95235" lon="1.46713">
        <ele>918.68</ele>
        <time>2012-07-15T07:35:08Z</time>
      </trkpt>
      <trkpt lat="42.95242" lon="1.46694">
        <ele>923</ele>
        <time>2012-07-15T07:35:44Z</time>
      </trkpt>
      <trkpt lat="42.95249" lon="1.46685">
        <ele>924.45</ele>
        <time>2012-07-15T07:36:12Z</time>
      </trkpt>
      <trkpt lat="42.95269" lon="1.46667">
        <ele>932.14</ele>
        <time>2012-07-15T07:36:43Z</time>
      </trkpt>
      <trkpt lat="42.95293" lon="1.46697">
        <ele>934.54</ele>
        <time>2012-07-15T07:37:09Z</time>
      </trkpt>
      <trkpt lat="42.9532" lon="1.46716">
        <ele>937.42</ele>
        <time>2012-07-15T07:37:39Z</time>
      </trkpt>
      <trkpt lat="42.9535" lon="1.46695">
        <ele>952.32</ele>
        <time>2012-07-15T07:39:32Z</time>
      </trkpt>
      <trkpt lat="42.95376" lon="1.46658">
        <ele>961.46</ele>
        <time>2012-07-15T07:40:50Z</time>
      </trkpt>
      <trkpt lat="42.95408" lon="1.46667">
        <ele>970.11</ele>
        <time>2012-07-15T07:42:44Z</time>
      </trkpt>
      <trkpt lat="42.95434" lon="1.46693">
        <ele>975.88</ele>
        <time>2012-07-15T07:44:40Z</time>
      </trkpt>
      <trkpt lat="42.95463" lon="1.46691">
        <ele>984.53</ele>
        <time>2012-07-15T07:46:31Z</time>
      </trkpt>
      <trkpt lat="42.95483" lon="1.46681">
        <ele>987.89</ele>
        <time>2012-07-15T07:47:19Z</time>
      </trkpt>
      <trkpt lat="42.95492" lon="1.46644">
        <ele>994.14</ele>
        <time>2012-07-15T07:48:39Z</time>
      </trkpt>
      <trkpt lat="42.955" lon="1.46602">
        <ele>999.43</ele>
        <time>2012-07-15T07:49:47Z</time>
      </trkpt>
      <trkpt lat="42.95516" lon="1.46564">
        <ele>1005.2</ele>
        <time>2012-07-15T07:50:35Z</time>
      </trkpt>
      <trkpt lat="42.95514" lon="1.46537">
        <ele>1007.6</ele>
        <time>2012-07-15T07:51:21Z</time>
      </trkpt>
      <trkpt lat="42.95525" lon="1.46498">
        <ele>1010.96</ele>
        <time>2012-07-15T07:52:13Z</time>
      </trkpt>
      <trkpt lat="42.95537" lon="1.46458">
        <ele>1013.85</ele>
        <time>2012-07-15T07:52:37Z</time>
      </trkpt>
      <trkpt lat="42.9555" lon="1.46419">
        <ele>1017.69</ele>
        <time>2012-07-15T07:53:00Z</time>
      </trkpt>
      <trkpt lat="42.95563" lon="1.4638">
        <ele>1021.06</ele>
        <time>2012-07-15T07:53:26Z</time>
      </trkpt>
      <trkpt lat="42.95576" lon="1.46342">
        <ele>1025.38</ele>
        <time>2012-07-15T07:53:53Z</time>
      </trkpt>
      <trkpt lat="42.95588" lon="1.46302">
        <ele>1028.75</ele>
        <time>2012-07-15T07:54:21Z</time>
      </trkpt>
      <trkpt lat="42.95598" lon="1.46263">
        <ele>1030.19</ele>
        <time>2012-07-15T07:54:48Z</time>
      </trkpt>
      <trkpt lat="42.95596" lon="1.4622">
        <ele>1028.27</ele>
        <time>2012-07-15T07:55:05Z</time>
      </trkpt>
      <trkpt lat="42.95596" lon="1.46173">
        <ele>1024.9</ele>
        <time>2012-07-15T07:55:16Z</time>
      </trkpt>
      <trkpt lat="42.95619" lon="1.46141">
        <ele>1026.83</ele>
        <time>2012-07-15T07:55:31Z</time>
      </trkpt>
      <trkpt lat="42.95643" lon="1.46111">
        <ele>1029.71</ele>
        <time>2012-07-15T07:55:51Z</time>
      </trkpt>
      <trkpt lat="42.95664" lon="1.46082">
        <ele>1033.55</ele>
        <time>2012-07-15T07:56:14Z</time>
      </trkpt>
      <trkpt lat="42.95686" lon="1.4605">
        <ele>1037.4</ele>
        <time>2012-07-15T07:56:39Z</time>
      </trkpt>
      <trkpt lat="42.95704" lon="1.46015">
        <ele>1039.8</ele>
        <time>2012-07-15T07:57:00Z</time>
      </trkpt>
      <trkpt lat="42.95722" lon="1.45978">
        <ele>1040.28</ele>
        <time>2012-07-15T07:57:20Z</time>
      </trkpt>
      <trkpt lat="42.95741" lon="1.45943">
        <ele>1043.65</ele>
        <time>2012-07-15T07:57:44Z</time>
      </trkpt>
      <trkpt lat="42.9576" lon="1.45907">
        <ele>1044.61</ele>
        <time>2012-07-15T07:58:05Z</time>
      </trkpt>
      <trkpt lat="42.95784" lon="1.45875">
        <ele>1046.05</ele>
        <time>2012-07-15T07:58:26Z</time>
      </trkpt>
      <trkpt lat="42.95806" lon="1.45844">
        <ele>1047.49</ele>
        <time>2012-07-15T07:58:45Z</time>
      </trkpt>
      <trkpt lat="42.95832" lon="1.4582">
        <ele>1049.42</ele>
        <time>2012-07-15T07:59:06Z</time>
      </trkpt>
      <trkpt lat="42.9586" lon="1.45797">
        <ele>1050.38</ele>
        <time>2012-07-15T07:59:27Z</time>
      </trkpt>
      <trkpt lat="42.95884" lon="1.45767">
        <ele>1050.86</ele>
        <time>2012-07-15T07:59:43Z</time>
      </trkpt>
      <trkpt lat="42.95906" lon="1.45736">
        <ele>1051.34</ele>
        <time>2012-07-15T08:00:02Z</time>
      </trkpt>
      <trkpt lat="42.95928" lon="1.45703">
        <ele>1052.3</ele>
        <time>2012-07-15T08:00:19Z</time>
      </trkpt>
      <trkpt lat="42.9596" lon="1.45696">
        <ele>1054.22</ele>
        <time>2012-07-15T08:00:41Z</time>
      </trkpt>
      <trkpt lat="42.95992" lon="1.45693">
        <ele>1055.18</ele>
        <time>2012-07-15T08:00:59Z</time>
      </trkpt>
      <trkpt lat="42.95997" lon="1.45693">
        <ele>1055.18</ele>
        <time>2012-07-15T08:01:19Z</time>
      </trkpt>
      <trkpt lat="42.95962" lon="1.45692">
        <ele>1055.67</ele>
        <time>2012-07-15T08:01:33Z</time>
      </trkpt>
      <trkpt lat="42.95938" lon="1.45684">
        <ele>1054.22</ele>
        <time>2012-07-15T08:01:48Z</time>
      </trkpt>
      <trkpt lat="42.95952" lon="1.45641">
        <ele>1053.74</ele>
        <time>2012-07-15T08:01:59Z</time>
      </trkpt>
      <trkpt lat="42.95964" lon="1.45599">
        <ele>1052.78</ele>
        <time>2012-07-15T08:02:08Z</time>
      </trkpt>
      <trkpt lat="42.95977" lon="1.4556">
        <ele>1053.26</ele>
        <time>2012-07-15T08:02:17Z</time>
      </trkpt>
      <trkpt lat="42.95993" lon="1.45522">
        <ele>1054.22</ele>
        <time>2012-07-15T08:02:26Z</time>
      </trkpt>
      <trkpt lat="42.96007" lon="1.4548">
        <ele>1055.67</ele>
        <time>2012-07-15T08:02:37Z</time>
      </trkpt>
      <trkpt lat="42.9603" lon="1.45448">
        <ele>1057.11</ele>
        <time>2012-07-15T08:02:50Z</time>
      </trkpt>
      <trkpt lat="42.9605" lon="1.45413">
        <ele>1056.63</ele>
        <time>2012-07-15T08:03:00Z</time>
      </trkpt>
      <trkpt lat="42.96066" lon="1.45373">
        <ele>1057.59</ele>
        <time>2012-07-15T08:03:11Z</time>
      </trkpt>
      <trkpt lat="42.96078" lon="1.45331">
        <ele>1059.03</ele>
        <time>2012-07-15T08:03:25Z</time>
      </trkpt>
      <trkpt lat="42.96089" lon="1.45287">
        <ele>1055.18</ele>
        <time>2012-07-15T08:04:14Z</time>
      </trkpt>
      <trkpt lat="42.96103" lon="1.45247">
        <ele>1047.49</ele>
        <time>2012-07-15T08:04:18Z</time>
      </trkpt>
      <trkpt lat="42.9612" lon="1.45204">
        <ele>1038.84</ele>
        <time>2012-07-15T08:04:23Z</time>
      </trkpt>
      <trkpt lat="42.96147" lon="1.45174">
        <ele>1035.48</ele>
        <time>2012-07-15T08:04:29Z</time>
      </trkpt>
      <trkpt lat="42.96166" lon="1.45151">
        <ele>1033.55</ele>
        <time>2012-07-15T08:05:22Z</time>
      </trkpt>
      <trkpt lat="42.96189" lon="1.45115">
        <ele>1031.63</ele>
        <time>2012-07-15T08:05:30Z</time>
      </trkpt>
      <trkpt lat="42.96205" lon="1.45079">
        <ele>1029.71</ele>
        <time>2012-07-15T08:05:38Z</time>
      </trkpt>
      <trkpt lat="42.96203" lon="1.45032">
        <ele>1027.31</ele>
        <time>2012-07-15T08:05:44Z</time>
      </trkpt>
      <trkpt lat="42.96201" lon="1.44981">
        <ele>1025.86</ele>
        <time>2012-07-15T08:05:50Z</time>
      </trkpt>
      <trkpt lat="42.96203" lon="1.44933">
        <ele>1024.42</ele>
        <time>2012-07-15T08:05:55Z</time>
      </trkpt>
      <trkpt lat="42.96214" lon="1.44883">
        <ele>1021.06</ele>
        <time>2012-07-15T08:06:00Z</time>
      </trkpt>
      <trkpt lat="42.96226" lon="1.44842">
        <ele>1018.17</ele>
        <time>2012-07-15T08:06:04Z</time>
      </trkpt>
      <trkpt lat="42.96237" lon="1.44797">
        <ele>1015.29</ele>
        <time>2012-07-15T08:06:08Z</time>
      </trkpt>
      <trkpt lat="42.96246" lon="1.44754">
        <ele>1013.85</ele>
        <time>2012-07-15T08:06:12Z</time>
      </trkpt>
      <trkpt lat="42.96246" lon="1.4471">
        <ele>1014.33</ele>
        <time>2012-07-15T08:06:24Z</time>
      </trkpt>
      <trkpt lat="42.96249" lon="1.44666">
        <ele>1014.81</ele>
        <time>2012-07-15T08:06:32Z</time>
      </trkpt>
      <trkpt lat="42.96245" lon="1.44624">
        <ele>1019.13</ele>
        <time>2012-07-15T08:06:42Z</time>
      </trkpt>
      <trkpt lat="42.96234" lon="1.44577">
        <ele>1021.54</ele>
        <time>2012-07-15T08:06:52Z</time>
      </trkpt>
      <trkpt lat="42.9623" lon="1.44531">
        <ele>1021.54</ele>
        <time>2012-07-15T08:07:01Z</time>
      </trkpt>
      <trkpt lat="42.96225" lon="1.44485">
        <ele>1021.06</ele>
        <time>2012-07-15T08:07:09Z</time>
      </trkpt>
      <trkpt lat="42.96222" lon="1.44441">
        <ele>1021.06</ele>
        <time>2012-07-15T08:07:16Z</time>
      </trkpt>
      <trkpt lat="42.96219" lon="1.44394">
        <ele>1019.62</ele>
        <time>2012-07-15T08:07:23Z</time>
      </trkpt>
      <trkpt lat="42.96217" lon="1.44343">
        <ele>1017.69</ele>
        <time>2012-07-15T08:07:29Z</time>
      </trkpt>
      <trkpt lat="42.96219" lon="1.44297">
        <ele>1016.25</ele>
        <time>2012-07-15T08:07:34Z</time>
      </trkpt>
      <trkpt lat="42.96212" lon="1.44249">
        <ele>1013.85</ele>
        <time>2012-07-15T08:07:40Z</time>
      </trkpt>
      <trkpt lat="42.96204" lon="1.44198">
        <ele>1009.04</ele>
        <time>2012-07-15T08:07:45Z</time>
      </trkpt>
      <trkpt lat="42.96201" lon="1.44151">
        <ele>1007.6</ele>
        <time>2012-07-15T08:07:49Z</time>
      </trkpt>
      <trkpt lat="42.96196" lon="1.44108">
        <ele>1004.72</ele>
        <time>2012-07-15T08:07:54Z</time>
      </trkpt>
      <trkpt lat="42.96196" lon="1.44063">
        <ele>1001.83</ele>
        <time>2012-07-15T08:07:58Z</time>
      </trkpt>
      <trkpt lat="42.96192" lon="1.44012">
        <ele>999.91</ele>
        <time>2012-07-15T08:08:02Z</time>
      </trkpt>
      <trkpt lat="42.96187" lon="1.43967">
        <ele>998.95</ele>
        <time>2012-07-15T08:08:06Z</time>
      </trkpt>
      <trkpt lat="42.96188" lon="1.4392">
        <ele>997.51</ele>
        <time>2012-07-15T08:08:10Z</time>
      </trkpt>
      <trkpt lat="42.96187" lon="1.43874">
        <ele>997.02</ele>
        <time>2012-07-15T08:08:14Z</time>
      </trkpt>
      <trkpt lat="42.96177" lon="1.43825">
        <ele>995.58</ele>
        <time>2012-07-15T08:08:19Z</time>
      </trkpt>
      <trkpt lat="42.96169" lon="1.43774">
        <ele>993.18</ele>
        <time>2012-07-15T08:08:24Z</time>
      </trkpt>
      <trkpt lat="42.96167" lon="1.43727">
        <ele>990.78</ele>
        <time>2012-07-15T08:08:28Z</time>
      </trkpt>
      <trkpt lat="42.96165" lon="1.43674">
        <ele>989.81</ele>
        <time>2012-07-15T08:08:33Z</time>
      </trkpt>
      <trkpt lat="42.96145" lon="1.43645">
        <ele>989.81</ele>
        <time>2012-07-15T08:08:42Z</time>
      </trkpt>
      <trkpt lat="42.96128" lon="1.43612">
        <ele>990.78</ele>
        <time>2012-07-15T08:08:54Z</time>
      </trkpt>
      <trkpt lat="42.96101" lon="1.43594">
        <ele>993.18</ele>
        <time>2012-07-15T08:09:02Z</time>
      </trkpt>
      <trkpt lat="42.96079" lon="1.43561">
        <ele>996.54</ele>
        <time>2012-07-15T08:09:10Z</time>
      </trkpt>
      <trkpt lat="42.96067" lon="1.43517">
        <ele>1000.87</ele>
        <time>2012-07-15T08:09:20Z</time>
      </trkpt>
      <trkpt lat="42.96054" lon="1.43476">
        <ele>1004.23</ele>
        <time>2012-07-15T08:09:31Z</time>
      </trkpt>
      <trkpt lat="42.96044" lon="1.43435">
        <ele>1006.64</ele>
        <time>2012-07-15T08:09:43Z</time>
      </trkpt>
      <trkpt lat="42.96035" lon="1.43391">
        <ele>1010.96</ele>
        <time>2012-07-15T08:10:01Z</time>
      </trkpt>
      <trkpt lat="42.96016" lon="1.43359">
        <ele>1014.81</ele>
        <time>2012-07-15T08:10:24Z</time>
      </trkpt>
      <trkpt lat="42.96007" lon="1.43311">
        <ele>1020.58</ele>
        <time>2012-07-15T08:10:50Z</time>
      </trkpt>
      <trkpt lat="42.95993" lon="1.43273">
        <ele>1024.9</ele>
        <time>2012-07-15T08:11:14Z</time>
      </trkpt>
      <trkpt lat="42.95976" lon="1.43236">
        <ele>1030.19</ele>
        <time>2012-07-15T08:11:42Z</time>
      </trkpt>
      <trkpt lat="42.95965" lon="1.43192">
        <ele>1036.44</ele>
        <time>2012-07-15T08:12:09Z</time>
      </trkpt>
      <trkpt lat="42.95954" lon="1.43151">
        <ele>1042.21</ele>
        <time>2012-07-15T08:12:41Z</time>
      </trkpt>
      <trkpt lat="42.95929" lon="1.43127">
        <ele>1046.53</ele>
        <time>2012-07-15T08:13:25Z</time>
      </trkpt>
      <trkpt lat="42.95899" lon="1.43143">
        <ele>1055.67</ele>
        <time>2012-07-15T08:14:13Z</time>
      </trkpt>
      <trkpt lat="42.95852" lon="1.43147">
        <ele>1066.24</ele>
        <time>2012-07-15T08:15:07Z</time>
      </trkpt>
      <trkpt lat="42.95828" lon="1.43112">
        <ele>1069.12</ele>
        <time>2012-07-15T08:15:40Z</time>
      </trkpt>
      <trkpt lat="42.95819" lon="1.43069">
        <ele>1069.6</ele>
        <time>2012-07-15T08:15:56Z</time>
      </trkpt>
      <trkpt lat="42.95798" lon="1.43035">
        <ele>1069.12</ele>
        <time>2012-07-15T08:16:09Z</time>
      </trkpt>
      <trkpt lat="42.95767" lon="1.43016">
        <ele>1070.57</ele>
        <time>2012-07-15T08:16:24Z</time>
      </trkpt>
      <trkpt lat="42.95733" lon="1.43012">
        <ele>1074.41</ele>
        <time>2012-07-15T08:16:50Z</time>
      </trkpt>
      <trkpt lat="42.95691" lon="1.43016">
        <ele>1076.33</ele>
        <time>2012-07-15T08:17:30Z</time>
      </trkpt>
      <trkpt lat="42.95654" lon="1.43026">
        <ele>1078.74</ele>
        <time>2012-07-15T08:18:08Z</time>
      </trkpt>
      <trkpt lat="42.95624" lon="1.4301">
        <ele>1082.1</ele>
        <time>2012-07-15T08:18:25Z</time>
      </trkpt>
      <trkpt lat="42.956" lon="1.4298">
        <ele>1085.47</ele>
        <time>2012-07-15T08:18:44Z</time>
      </trkpt>
      <trkpt lat="42.95581" lon="1.42936">
        <ele>1088.35</ele>
        <time>2012-07-15T08:19:05Z</time>
      </trkpt>
      <trkpt lat="42.95557" lon="1.42899">
        <ele>1092.2</ele>
        <time>2012-07-15T08:19:35Z</time>
      </trkpt>
      <trkpt lat="42.95522" lon="1.42925">
        <ele>1097</ele>
        <time>2012-07-15T08:19:58Z</time>
      </trkpt>
      <trkpt lat="42.95494" lon="1.42961">
        <ele>1104.21</ele>
        <time>2012-07-15T08:20:30Z</time>
      </trkpt>
      <trkpt lat="42.95455" lon="1.42994">
        <ele>1109.98</ele>
        <time>2012-07-15T08:21:07Z</time>
      </trkpt>
      <trkpt lat="42.95417" lon="1.43006">
        <ele>1114.31</ele>
        <time>2012-07-15T08:21:35Z</time>
      </trkpt>
      <trkpt lat="42.95384" lon="1.43018">
        <ele>1118.15</ele>
        <time>2012-07-15T08:22:00Z</time>
      </trkpt>
      <trkpt lat="42.95347" lon="1.43044">
        <ele>1121.52</ele>
        <time>2012-07-15T08:22:34Z</time>
      </trkpt>
      <trkpt lat="42.95311" lon="1.43082">
        <ele>1125.36</ele>
        <time>2012-07-15T08:23:03Z</time>
      </trkpt>
      <trkpt lat="42.95267" lon="1.43107">
        <ele>1131.13</ele>
        <time>2012-07-15T08:23:37Z</time>
      </trkpt>
      <trkpt lat="42.95223" lon="1.43155">
        <ele>1136.9</ele>
        <time>2012-07-15T08:24:11Z</time>
      </trkpt>
      <trkpt lat="42.95185" lon="1.43208">
        <ele>1143.63</ele>
        <time>2012-07-15T08:24:48Z</time>
      </trkpt>
      <trkpt lat="42.95166" lon="1.43183">
        <ele>1147.47</ele>
        <time>2012-07-15T08:25:49Z</time>
      </trkpt>
      <trkpt lat="42.95154" lon="1.43146">
        <ele>1150.84</ele>
        <time>2012-07-15T08:27:21Z</time>
      </trkpt>
      <trkpt lat="42.95165" lon="1.4311">
        <ele>1154.2</ele>
        <time>2012-07-15T08:27:43Z</time>
      </trkpt>
      <trkpt lat="42.95171" lon="1.43068">
        <ele>1160.45</ele>
        <time>2012-07-15T08:28:09Z</time>
      </trkpt>
      <trkpt lat="42.95177" lon="1.43023">
        <ele>1165.26</ele>
        <time>2012-07-15T08:28:38Z</time>
      </trkpt>
      <trkpt lat="42.95187" lon="1.42981">
        <ele>1170.54</ele>
        <time>2012-07-15T08:29:06Z</time>
      </trkpt>
      <trkpt lat="42.95196" lon="1.4294">
        <ele>1176.31</ele>
        <time>2012-07-15T08:29:36Z</time>
      </trkpt>
      <trkpt lat="42.95202" lon="1.42895">
        <ele>1182.56</ele>
        <time>2012-07-15T08:30:05Z</time>
      </trkpt>
      <trkpt lat="42.95204" lon="1.4285">
        <ele>1188.33</ele>
        <time>2012-07-15T08:30:36Z</time>
      </trkpt>
      <trkpt lat="42.95193" lon="1.4281">
        <ele>1193.61</ele>
        <time>2012-07-15T08:31:08Z</time>
      </trkpt>
      <trkpt lat="42.95191" lon="1.42759">
        <ele>1198.42</ele>
        <time>2012-07-15T08:31:42Z</time>
      </trkpt>
      <trkpt lat="42.95182" lon="1.42715">
        <ele>1203.23</ele>
        <time>2012-07-15T08:32:15Z</time>
      </trkpt>
      <trkpt lat="42.95152" lon="1.42685">
        <ele>1211.4</ele>
        <time>2012-07-15T08:32:49Z</time>
      </trkpt>
      <trkpt lat="42.95118" lon="1.42672">
        <ele>1219.09</ele>
        <time>2012-07-15T08:33:46Z</time>
      </trkpt>
      <trkpt lat="42.95089" lon="1.42648">
        <ele>1223.9</ele>
        <time>2012-07-15T08:34:20Z</time>
      </trkpt>
      <trkpt lat="42.9506" lon="1.4263">
        <ele>1228.7</ele>
        <time>2012-07-15T08:35:12Z</time>
      </trkpt>
      <trkpt lat="42.95027" lon="1.42647">
        <ele>1234.47</ele>
        <time>2012-07-15T08:35:48Z</time>
      </trkpt>
      <trkpt lat="42.94992" lon="1.42664">
        <ele>1239.28</ele>
        <time>2012-07-15T08:36:23Z</time>
      </trkpt>
      <trkpt lat="42.94959" lon="1.42667">
        <ele>1242.16</ele>
        <time>2012-07-15T08:36:50Z</time>
      </trkpt>
      <trkpt lat="42.94938" lon="1.42632">
        <ele>1243.6</ele>
        <time>2012-07-15T08:37:10Z</time>
      </trkpt>
      <trkpt lat="42.9493" lon="1.42589">
        <ele>1243.6</ele>
        <time>2012-07-15T08:37:23Z</time>
      </trkpt>
      <trkpt lat="42.94922" lon="1.42546">
        <ele>1244.56</ele>
        <time>2012-07-15T08:37:33Z</time>
      </trkpt>
      <trkpt lat="42.94914" lon="1.42502">
        <ele>1245.04</ele>
        <time>2012-07-15T08:37:44Z</time>
      </trkpt>
      <trkpt lat="42.94905" lon="1.4246">
        <ele>1246.01</ele>
        <time>2012-07-15T08:37:54Z</time>
      </trkpt>
      <trkpt lat="42.94896" lon="1.42417">
        <ele>1246.97</ele>
        <time>2012-07-15T08:38:04Z</time>
      </trkpt>
      <trkpt lat="42.94887" lon="1.42379">
        <ele>1246.49</ele>
        <time>2012-07-15T08:38:37Z</time>
      </trkpt>
      <trkpt lat="42.94882" lon="1.42337">
        <ele>1247.45</ele>
        <time>2012-07-15T08:38:46Z</time>
      </trkpt>
      <trkpt lat="42.94875" lon="1.4229">
        <ele>1247.93</ele>
        <time>2012-07-15T08:38:57Z</time>
      </trkpt>
      <trkpt lat="42.94865" lon="1.42247">
        <ele>1248.41</ele>
        <time>2012-07-15T08:39:06Z</time>
      </trkpt>
      <trkpt lat="42.94865" lon="1.42205">
        <ele>1248.41</ele>
        <time>2012-07-15T08:39:15Z</time>
      </trkpt>
      <trkpt lat="42.94865" lon="1.42159">
        <ele>1248.89</ele>
        <time>2012-07-15T08:39:25Z</time>
      </trkpt>
      <trkpt lat="42.94861" lon="1.42118">
        <ele>1248.89</ele>
        <time>2012-07-15T08:39:38Z</time>
      </trkpt>
      <trkpt lat="42.94851" lon="1.42072">
        <ele>1249.85</ele>
        <time>2012-07-15T08:39:46Z</time>
      </trkpt>
      <trkpt lat="42.94827" lon="1.42038">
        <ele>1249.37</ele>
        <time>2012-07-15T08:39:54Z</time>
      </trkpt>
      <trkpt lat="42.94793" lon="1.4202">
        <ele>1252.25</ele>
        <time>2012-07-15T08:40:05Z</time>
      </trkpt>
      <trkpt lat="42.94765" lon="1.41999">
        <ele>1254.66</ele>
        <time>2012-07-15T08:40:18Z</time>
      </trkpt>
      <trkpt lat="42.9473" lon="1.41984">
        <ele>1254.66</ele>
        <time>2012-07-15T08:40:31Z</time>
      </trkpt>
      <trkpt lat="42.94696" lon="1.41969">
        <ele>1255.14</ele>
        <time>2012-07-15T08:40:43Z</time>
      </trkpt>
      <trkpt lat="42.94668" lon="1.41936">
        <ele>1257.06</ele>
        <time>2012-07-15T08:40:58Z</time>
      </trkpt>
      <trkpt lat="42.9465" lon="1.4189">
        <ele>1257.06</ele>
        <time>2012-07-15T08:41:11Z</time>
      </trkpt>
      <trkpt lat="42.94649" lon="1.41842">
        <ele>1257.06</ele>
        <time>2012-07-15T08:41:22Z</time>
      </trkpt>
      <trkpt lat="42.94649" lon="1.41797">
        <ele>1258.02</ele>
        <time>2012-07-15T08:41:35Z</time>
      </trkpt>
      <trkpt lat="42.94632" lon="1.41781">
        <ele>1257.54</ele>
        <time>2012-07-15T08:45:57Z</time>
      </trkpt>
      <trkpt lat="42.94604" lon="1.4176">
        <ele>1258.5</ele>
        <time>2012-07-15T08:46:24Z</time>
      </trkpt>
      <trkpt lat="42.94576" lon="1.41733">
        <ele>1260.43</ele>
        <time>2012-07-15T08:46:35Z</time>
      </trkpt>
      <trkpt lat="42.94549" lon="1.41705">
        <ele>1262.35</ele>
        <time>2012-07-15T08:46:48Z</time>
      </trkpt>
      <trkpt lat="42.94521" lon="1.41677">
        <ele>1264.27</ele>
        <time>2012-07-15T08:47:02Z</time>
      </trkpt>
      <trkpt lat="42.94497" lon="1.4165">
        <ele>1267.16</ele>
        <time>2012-07-15T08:47:22Z</time>
      </trkpt>
      <trkpt lat="42.9447" lon="1.41619">
        <ele>1273.88</ele>
        <time>2012-07-15T08:47:53Z</time>
      </trkpt>
      <trkpt lat="42.94445" lon="1.41576">
        <ele>1280.13</ele>
        <time>2012-07-15T08:48:25Z</time>
      </trkpt>
      <trkpt lat="42.94417" lon="1.41549">
        <ele>1285.9</ele>
        <time>2012-07-15T08:48:58Z</time>
      </trkpt>
      <trkpt lat="42.94402" lon="1.41507">
        <ele>1289.75</ele>
        <time>2012-07-15T08:49:28Z</time>
      </trkpt>
      <trkpt lat="42.94404" lon="1.4145">
        <ele>1296.48</ele>
        <time>2012-07-15T08:50:17Z</time>
      </trkpt>
      <trkpt lat="42.94385" lon="1.41394">
        <ele>1302.24</ele>
        <time>2012-07-15T08:51:00Z</time>
      </trkpt>
      <trkpt lat="42.94348" lon="1.41314">
        <ele>1313.3</ele>
        <time>2012-07-15T08:52:08Z</time>
      </trkpt>
      <trkpt lat="42.94306" lon="1.4125">
        <ele>1321.47</ele>
        <time>2012-07-15T08:53:16Z</time>
      </trkpt>
      <trkpt lat="42.94285" lon="1.41185">
        <ele>1329.16</ele>
        <time>2012-07-15T08:54:20Z</time>
      </trkpt>
      <trkpt lat="42.94268" lon="1.41137">
        <ele>1335.41</ele>
        <time>2012-07-15T08:54:56Z</time>
      </trkpt>
      <trkpt lat="42.94227" lon="1.41102">
        <ele>1344.06</ele>
        <time>2012-07-15T08:55:46Z</time>
      </trkpt>
      <trkpt lat="42.94194" lon="1.41072">
        <ele>1350.31</ele>
        <time>2012-07-15T08:56:23Z</time>
      </trkpt>
      <trkpt lat="42.94162" lon="1.41048">
        <ele>1356.08</ele>
        <time>2012-07-15T08:56:56Z</time>
      </trkpt>
      <trkpt lat="42.94131" lon="1.41031">
        <ele>1360.88</ele>
        <time>2012-07-15T08:57:28Z</time>
      </trkpt>
      <trkpt lat="42.94101" lon="1.41016">
        <ele>1365.21</ele>
        <time>2012-07-15T08:57:59Z</time>
      </trkpt>
      <trkpt lat="42.94069" lon="1.41008">
        <ele>1367.61</ele>
        <time>2012-07-15T08:58:23Z</time>
      </trkpt>
      <trkpt lat="42.94037" lon="1.41009">
        <ele>1370.5</ele>
        <time>2012-07-15T08:58:48Z</time>
      </trkpt>
      <trkpt lat="42.94003" lon="1.41005">
        <ele>1372.9</ele>
        <time>2012-07-15T08:59:14Z</time>
      </trkpt>
      <trkpt lat="42.93966" lon="1.41011">
        <ele>1376.75</ele>
        <time>2012-07-15T08:59:40Z</time>
      </trkpt>
      <trkpt lat="42.93934" lon="1.41017">
        <ele>1380.59</ele>
        <time>2012-07-15T09:00:03Z</time>
      </trkpt>
      <trkpt lat="42.93901" lon="1.41029">
        <ele>1381.55</ele>
        <time>2012-07-15T09:00:22Z</time>
      </trkpt>
      <trkpt lat="42.93863" lon="1.41045">
        <ele>1385.4</ele>
        <time>2012-07-15T09:00:50Z</time>
      </trkpt>
      <trkpt lat="42.93833" lon="1.41066">
        <ele>1393.57</ele>
        <time>2012-07-15T09:01:27Z</time>
      </trkpt>
      <trkpt lat="42.93802" lon="1.41065">
        <ele>1399.34</ele>
        <time>2012-07-15T09:04:15Z</time>
      </trkpt>
      <trkpt lat="42.93768" lon="1.41048">
        <ele>1398.37</ele>
        <time>2012-07-15T09:04:30Z</time>
      </trkpt>
      <trkpt lat="42.93734" lon="1.41031">
        <ele>1398.37</ele>
        <time>2012-07-15T09:04:44Z</time>
      </trkpt>
      <trkpt lat="42.93697" lon="1.41021">
        <ele>1402.22</ele>
        <time>2012-07-15T09:05:06Z</time>
      </trkpt>
      <trkpt lat="42.93664" lon="1.41016">
        <ele>1404.62</ele>
        <time>2012-07-15T09:05:27Z</time>
      </trkpt>
      <trkpt lat="42.93633" lon="1.41005">
        <ele>1407.03</ele>
        <time>2012-07-15T09:05:47Z</time>
      </trkpt>
      <trkpt lat="42.93602" lon="1.40996">
        <ele>1409.91</ele>
        <time>2012-07-15T09:06:08Z</time>
      </trkpt>
      <trkpt lat="42.93573" lon="1.40983">
        <ele>1413.28</ele>
        <time>2012-07-15T09:06:32Z</time>
      </trkpt>
      <trkpt lat="42.93541" lon="1.40974">
        <ele>1418.56</ele>
        <time>2012-07-15T09:07:04Z</time>
      </trkpt>
      <trkpt lat="42.93511" lon="1.40955">
        <ele>1423.85</ele>
        <time>2012-07-15T09:07:36Z</time>
      </trkpt>
      <trkpt lat="42.93481" lon="1.40937">
        <ele>1428.66</ele>
        <time>2012-07-15T09:08:11Z</time>
      </trkpt>
      <trkpt lat="42.93447" lon="1.40927">
        <ele>1433.94</ele>
        <time>2012-07-15T09:08:45Z</time>
      </trkpt>
      <trkpt lat="42.93413" lon="1.40936">
        <ele>1438.75</ele>
        <time>2012-07-15T09:09:17Z</time>
      </trkpt>
      <trkpt lat="42.93384" lon="1.40953">
        <ele>1442.11</ele>
        <time>2012-07-15T09:09:42Z</time>
      </trkpt>
      <trkpt lat="42.93356" lon="1.40976">
        <ele>1444.04</ele>
        <time>2012-07-15T09:10:05Z</time>
      </trkpt>
      <trkpt lat="42.9333" lon="1.41">
        <ele>1446.44</ele>
        <time>2012-07-15T09:10:28Z</time>
      </trkpt>
      <trkpt lat="42.933" lon="1.41023">
        <ele>1445.96</ele>
        <time>2012-07-15T09:10:43Z</time>
      </trkpt>
      <trkpt lat="42.9327" lon="1.41045">
        <ele>1446.44</ele>
        <time>2012-07-15T09:10:59Z</time>
      </trkpt>
      <trkpt lat="42.9324" lon="1.41056">
        <ele>1447.4</ele>
        <time>2012-07-15T09:11:57Z</time>
      </trkpt>
      <trkpt lat="42.93208" lon="1.41064">
        <ele>1450.29</ele>
        <time>2012-07-15T09:12:16Z</time>
      </trkpt>
      <trkpt lat="42.93176" lon="1.41074">
        <ele>1454.61</ele>
        <time>2012-07-15T09:12:39Z</time>
      </trkpt>
      <trkpt lat="42.93145" lon="1.41081">
        <ele>1455.09</ele>
        <time>2012-07-15T09:12:55Z</time>
      </trkpt>
      <trkpt lat="42.93113" lon="1.41083">
        <ele>1457.5</ele>
        <time>2012-07-15T09:13:12Z</time>
      </trkpt>
      <trkpt lat="42.93081" lon="1.41095">
        <ele>1460.38</ele>
        <time>2012-07-15T09:13:33Z</time>
      </trkpt>
      <trkpt lat="42.9306" lon="1.41126">
        <ele>1463.26</ele>
        <time>2012-07-15T09:13:56Z</time>
      </trkpt>
      <trkpt lat="42.93033" lon="1.41153">
        <ele>1460.86</ele>
        <time>2012-07-15T09:14:09Z</time>
      </trkpt>
      <trkpt lat="42.93004" lon="1.41157">
        <ele>1461.34</ele>
        <time>2012-07-15T09:14:24Z</time>
      </trkpt>
      <trkpt lat="42.92972" lon="1.41152">
        <ele>1458.94</ele>
        <time>2012-07-15T09:14:34Z</time>
      </trkpt>
      <trkpt lat="42.92939" lon="1.41146">
        <ele>1455.57</ele>
        <time>2012-07-15T09:14:43Z</time>
      </trkpt>
      <trkpt lat="42.92905" lon="1.41151">
        <ele>1456.05</ele>
        <time>2012-07-15T09:14:59Z</time>
      </trkpt>
      <trkpt lat="42.92873" lon="1.41158">
        <ele>1459.42</ele>
        <time>2012-07-15T09:15:22Z</time>
      </trkpt>
      <trkpt lat="42.92841" lon="1.41165">
        <ele>1464.23</ele>
        <time>2012-07-15T09:15:47Z</time>
      </trkpt>
      <trkpt lat="42.92808" lon="1.41172">
        <ele>1467.11</ele>
        <time>2012-07-15T09:16:11Z</time>
      </trkpt>
      <trkpt lat="42.92777" lon="1.41179">
        <ele>1471.44</ele>
        <time>2012-07-15T09:16:38Z</time>
      </trkpt>
      <trkpt lat="42.92746" lon="1.41189">
        <ele>1475.76</ele>
        <time>2012-07-15T09:17:05Z</time>
      </trkpt>
      <trkpt lat="42.92715" lon="1.41194">
        <ele>1480.57</ele>
        <time>2012-07-15T09:17:48Z</time>
      </trkpt>
      <trkpt lat="42.92684" lon="1.41199">
        <ele>1488.74</ele>
        <time>2012-07-15T09:18:24Z</time>
      </trkpt>
      <trkpt lat="42.92653" lon="1.41201">
        <ele>1498.35</ele>
        <time>2012-07-15T09:19:10Z</time>
      </trkpt>
      <trkpt lat="42.92623" lon="1.41204">
        <ele>1507.48</ele>
        <time>2012-07-15T09:22:16Z</time>
      </trkpt>
      <trkpt lat="42.9259" lon="1.412">
        <ele>1507</ele>
        <time>2012-07-15T09:22:35Z</time>
      </trkpt>
      <trkpt lat="42.92558" lon="1.41195">
        <ele>1508.93</ele>
        <time>2012-07-15T09:22:59Z</time>
      </trkpt>
      <trkpt lat="42.92526" lon="1.41198">
        <ele>1515.18</ele>
        <time>2012-07-15T09:23:31Z</time>
      </trkpt>
      <trkpt lat="42.92495" lon="1.41195">
        <ele>1525.75</ele>
        <time>2012-07-15T09:24:34Z</time>
      </trkpt>
      <trkpt lat="42.92464" lon="1.4121">
        <ele>1531.04</ele>
        <time>2012-07-15T09:25:14Z</time>
      </trkpt>
      <trkpt lat="42.92434" lon="1.41215">
        <ele>1534.88</ele>
        <time>2012-07-15T09:25:48Z</time>
      </trkpt>
      <trkpt lat="42.92402" lon="1.41217">
        <ele>1540.65</ele>
        <time>2012-07-15T09:26:26Z</time>
      </trkpt>
      <trkpt lat="42.92373" lon="1.41225">
        <ele>1548.34</ele>
        <time>2012-07-15T09:27:24Z</time>
      </trkpt>
      <trkpt lat="42.92342" lon="1.41222">
        <ele>1555.55</ele>
        <time>2012-07-15T09:28:13Z</time>
      </trkpt>
      <trkpt lat="42.92313" lon="1.41203">
        <ele>1566.12</ele>
        <time>2012-07-15T09:29:16Z</time>
      </trkpt>
      <trkpt lat="42.92285" lon="1.41183">
        <ele>1575.26</ele>
        <time>2012-07-15T09:30:05Z</time>
      </trkpt>
      <trkpt lat="42.92258" lon="1.41165">
        <ele>1578.62</ele>
        <time>2012-07-15T09:31:00Z</time>
      </trkpt>
      <trkpt lat="42.9223" lon="1.41143">
        <ele>1582.95</ele>
        <time>2012-07-15T09:31:28Z</time>
      </trkpt>
      <trkpt lat="42.92202" lon="1.41123">
        <ele>1586.79</ele>
        <time>2012-07-15T09:31:56Z</time>
      </trkpt>
      <trkpt lat="42.92173" lon="1.41107">
        <ele>1587.27</ele>
        <time>2012-07-15T09:32:19Z</time>
      </trkpt>
      <trkpt lat="42.92144" lon="1.41091">
        <ele>1586.31</ele>
        <time>2012-07-15T09:32:35Z</time>
      </trkpt>
      <trkpt lat="42.92111" lon="1.41086">
        <ele>1585.83</ele>
        <time>2012-07-15T09:32:50Z</time>
      </trkpt>
      <trkpt lat="42.92078" lon="1.41085">
        <ele>1585.35</ele>
        <time>2012-07-15T09:33:08Z</time>
      </trkpt>
      <trkpt lat="42.92046" lon="1.41085">
        <ele>1584.39</ele>
        <time>2012-07-15T09:33:22Z</time>
      </trkpt>
      <trkpt lat="42.92012" lon="1.41081">
        <ele>1584.39</ele>
        <time>2012-07-15T09:33:38Z</time>
      </trkpt>
      <trkpt lat="42.9198" lon="1.41075">
        <ele>1586.79</ele>
        <time>2012-07-15T09:33:56Z</time>
      </trkpt>
      <trkpt lat="42.91947" lon="1.41068">
        <ele>1589.2</ele>
        <time>2012-07-15T09:34:18Z</time>
      </trkpt>
      <trkpt lat="42.91915" lon="1.41068">
        <ele>1593.04</ele>
        <time>2012-07-15T09:36:12Z</time>
      </trkpt>
      <trkpt lat="42.9189" lon="1.41054">
        <ele>1595.45</ele>
        <time>2012-07-15T09:36:51Z</time>
      </trkpt>
      <trkpt lat="42.91857" lon="1.41053">
        <ele>1599.29</ele>
        <time>2012-07-15T09:37:13Z</time>
      </trkpt>
      <trkpt lat="42.91824" lon="1.41049">
        <ele>1603.62</ele>
        <time>2012-07-15T09:37:35Z</time>
      </trkpt>
      <trkpt lat="42.91794" lon="1.41047">
        <ele>1609.86</ele>
        <time>2012-07-15T09:37:59Z</time>
      </trkpt>
      <trkpt lat="42.91776" lon="1.41042">
        <ele>1611.79</ele>
        <time>2012-07-15T09:49:11Z</time>
      </trkpt>
      <trkpt lat="42.91753" lon="1.41073">
        <ele>1611.31</ele>
        <time>2012-07-15T09:49:31Z</time>
      </trkpt>
      <trkpt lat="42.91732" lon="1.41108">
        <ele>1608.42</ele>
        <time>2012-07-15T09:49:44Z</time>
      </trkpt>
      <trkpt lat="42.91716" lon="1.41144">
        <ele>1605.06</ele>
        <time>2012-07-15T09:50:00Z</time>
      </trkpt>
      <trkpt lat="42.91696" lon="1.41179">
        <ele>1599.77</ele>
        <time>2012-07-15T09:50:38Z</time>
      </trkpt>
      <trkpt lat="42.9168" lon="1.41214">
        <ele>1592.56</ele>
        <time>2012-07-15T09:51:04Z</time>
      </trkpt>
      <trkpt lat="42.9167" lon="1.41259">
        <ele>1583.43</ele>
        <time>2012-07-15T09:51:36Z</time>
      </trkpt>
      <trkpt lat="42.91671" lon="1.41296">
        <ele>1573.33</ele>
        <time>2012-07-15T09:52:39Z</time>
      </trkpt>
      <trkpt lat="42.91669" lon="1.41344">
        <ele>1558.92</ele>
        <time>2012-07-15T09:53:57Z</time>
      </trkpt>
      <trkpt lat="42.9166" lon="1.41386">
        <ele>1551.22</ele>
        <time>2012-07-15T09:54:46Z</time>
      </trkpt>
      <trkpt lat="42.91661" lon="1.41425">
        <ele>1541.61</ele>
        <time>2012-07-15T09:55:57Z</time>
      </trkpt>
      <trkpt lat="42.91651" lon="1.41465">
        <ele>1538.25</ele>
        <time>2012-07-15T09:57:19Z</time>
      </trkpt>
      <trkpt lat="42.91643" lon="1.41504">
        <ele>1532.96</ele>
        <time>2012-07-15T09:58:01Z</time>
      </trkpt>
      <trkpt lat="42.91647" lon="1.41543">
        <ele>1531.04</ele>
        <time>2012-07-15T09:58:48Z</time>
      </trkpt>
      <trkpt lat="42.91648" lon="1.41587">
        <ele>1521.42</ele>
        <time>2012-07-15T09:59:45Z</time>
      </trkpt>
      <trkpt lat="42.91625" lon="1.41615">
        <ele>1521.42</ele>
        <time>2012-07-15T10:01:21Z</time>
      </trkpt>
      <trkpt lat="42.91614" lon="1.41655">
        <ele>1522.39</ele>
        <time>2012-07-15T10:01:59Z</time>
      </trkpt>
      <trkpt lat="42.91602" lon="1.41697">
        <ele>1519.98</ele>
        <time>2012-07-15T10:02:32Z</time>
      </trkpt>
      <trkpt lat="42.9159" lon="1.41747">
        <ele>1515.18</ele>
        <time>2012-07-15T10:04:00Z</time>
      </trkpt>
      <trkpt lat="42.91591" lon="1.41796">
        <ele>1510.37</ele>
        <time>2012-07-15T10:04:22Z</time>
      </trkpt>
      <trkpt lat="42.9158" lon="1.41855">
        <ele>1500.27</ele>
        <time>2012-07-15T10:05:00Z</time>
      </trkpt>
      <trkpt lat="42.91568" lon="1.4192">
        <ele>1488.74</ele>
        <time>2012-07-15T10:06:04Z</time>
      </trkpt>
      <trkpt lat="42.91552" lon="1.41965">
        <ele>1482.49</ele>
        <time>2012-07-15T10:06:17Z</time>
      </trkpt>
      <trkpt lat="42.91543" lon="1.4201">
        <ele>1477.2</ele>
        <time>2012-07-15T10:06:24Z</time>
      </trkpt>
      <trkpt lat="42.91531" lon="1.42058">
        <ele>1473.84</ele>
        <time>2012-07-15T10:06:29Z</time>
      </trkpt>
      <trkpt lat="42.91522" lon="1.42099">
        <ele>1472.4</ele>
        <time>2012-07-15T10:06:40Z</time>
      </trkpt>
      <trkpt lat="42.9152" lon="1.42146">
        <ele>1472.88</ele>
        <time>2012-07-15T10:06:51Z</time>
      </trkpt>
      <trkpt lat="42.9152" lon="1.42194">
        <ele>1473.36</ele>
        <time>2012-07-15T10:07:04Z</time>
      </trkpt>
      <trkpt lat="42.91513" lon="1.42247">
        <ele>1473.84</ele>
        <time>2012-07-15T10:07:16Z</time>
      </trkpt>
      <trkpt lat="42.91504" lon="1.42304">
        <ele>1475.76</ele>
        <time>2012-07-15T10:07:28Z</time>
      </trkpt>
      <trkpt lat="42.91504" lon="1.4236">
        <ele>1479.61</ele>
        <time>2012-07-15T10:08:21Z</time>
      </trkpt>
      <trkpt lat="42.91515" lon="1.4241">
        <ele>1489.22</ele>
        <time>2012-07-15T10:08:55Z</time>
      </trkpt>
      <trkpt lat="42.91512" lon="1.42473">
        <ele>1495.47</ele>
        <time>2012-07-15T10:09:49Z</time>
      </trkpt>
      <trkpt lat="42.91508" lon="1.4252">
        <ele>1497.87</ele>
        <time>2012-07-15T10:10:09Z</time>
      </trkpt>
      <trkpt lat="42.91509" lon="1.42563">
        <ele>1498.35</ele>
        <time>2012-07-15T10:10:27Z</time>
      </trkpt>
      <trkpt lat="42.91523" lon="1.42609">
        <ele>1494.99</ele>
        <time>2012-07-15T10:10:44Z</time>
      </trkpt>
      <trkpt lat="42.9152" lon="1.42671">
        <ele>1488.26</ele>
        <time>2012-07-15T10:10:53Z</time>
      </trkpt>
      <trkpt lat="42.91508" lon="1.42718">
        <ele>1482.97</ele>
        <time>2012-07-15T10:10:58Z</time>
      </trkpt>
      <trkpt lat="42.91499" lon="1.42759">
        <ele>1478.65</ele>
        <time>2012-07-15T10:11:03Z</time>
      </trkpt>
      <trkpt lat="42.91485" lon="1.42802">
        <ele>1477.68</ele>
        <time>2012-07-15T10:11:09Z</time>
      </trkpt>
      <trkpt lat="42.9147" lon="1.42837">
        <ele>1479.61</ele>
        <time>2012-07-15T10:13:58Z</time>
      </trkpt>
      <trkpt lat="42.91458" lon="1.42882">
        <ele>1483.45</ele>
        <time>2012-07-15T10:14:11Z</time>
      </trkpt>
      <trkpt lat="42.91451" lon="1.42924">
        <ele>1484.89</ele>
        <time>2012-07-15T10:14:26Z</time>
      </trkpt>
      <trkpt lat="42.91458" lon="1.42967">
        <ele>1484.89</ele>
        <time>2012-07-15T10:14:39Z</time>
      </trkpt>
      <trkpt lat="42.91469" lon="1.43009">
        <ele>1486.82</ele>
        <time>2012-07-15T10:14:55Z</time>
      </trkpt>
      <trkpt lat="42.91482" lon="1.43048">
        <ele>1489.7</ele>
        <time>2012-07-15T10:15:20Z</time>
      </trkpt>
      <trkpt lat="42.91494" lon="1.43086">
        <ele>1494.99</ele>
        <time>2012-07-15T10:15:46Z</time>
      </trkpt>
      <trkpt lat="42.9151" lon="1.43124">
        <ele>1500.76</ele>
        <time>2012-07-15T10:17:07Z</time>
      </trkpt>
      <trkpt lat="42.91526" lon="1.43162">
        <ele>1508.45</ele>
        <time>2012-07-15T10:17:31Z</time>
      </trkpt>
      <trkpt lat="42.91554" lon="1.43184">
        <ele>1514.69</ele>
        <time>2012-07-15T10:18:19Z</time>
      </trkpt>
      <trkpt lat="42.91568" lon="1.43227">
        <ele>1522.39</ele>
        <time>2012-07-15T10:19:19Z</time>
      </trkpt>
      <trkpt lat="42.91577" lon="1.43268">
        <ele>1530.56</ele>
        <time>2012-07-15T10:19:58Z</time>
      </trkpt>
      <trkpt lat="42.91569" lon="1.43305">
        <ele>1536.32</ele>
        <time>2012-07-15T10:21:50Z</time>
      </trkpt>
      <trkpt lat="42.91549" lon="1.43335">
        <ele>1542.09</ele>
        <time>2012-07-15T10:22:18Z</time>
      </trkpt>
      <trkpt lat="42.91517" lon="1.43374">
        <ele>1546.42</ele>
        <time>2012-07-15T10:22:55Z</time>
      </trkpt>
      <trkpt lat="42.91504" lon="1.43422">
        <ele>1552.67</ele>
        <time>2012-07-15T10:23:45Z</time>
      </trkpt>
      <trkpt lat="42.91501" lon="1.43467">
        <ele>1559.4</ele>
        <time>2012-07-15T10:24:34Z</time>
      </trkpt>
      <trkpt lat="42.91496" lon="1.43511">
        <ele>1566.12</ele>
        <time>2012-07-15T10:26:00Z</time>
      </trkpt>
      <trkpt lat="42.91491" lon="1.43557">
        <ele>1570.93</ele>
        <time>2012-07-15T10:26:25Z</time>
      </trkpt>
      <trkpt lat="42.91487" lon="1.43601">
        <ele>1576.22</ele>
        <time>2012-07-15T10:26:54Z</time>
      </trkpt>
      <trkpt lat="42.91483" lon="1.43644">
        <ele>1580.54</ele>
        <time>2012-07-15T10:29:02Z</time>
      </trkpt>
      <trkpt lat="42.91478" lon="1.43687">
        <ele>1584.87</ele>
        <time>2012-07-15T10:29:25Z</time>
      </trkpt>
      <trkpt lat="42.91461" lon="1.43715">
        <ele>1583.43</ele>
        <time>2012-07-15T10:30:33Z</time>
      </trkpt>
      <trkpt lat="42.91438" lon="1.43743">
        <ele>1575.74</ele>
        <time>2012-07-15T10:31:23Z</time>
      </trkpt>
      <trkpt lat="42.91413" lon="1.43767">
        <ele>1567.09</ele>
        <time>2012-07-15T10:31:46Z</time>
      </trkpt>
      <trkpt lat="42.91388" lon="1.43801">
        <ele>1560.36</ele>
        <time>2012-07-15T10:32:05Z</time>
      </trkpt>
      <trkpt lat="42.91363" lon="1.43838">
        <ele>1554.59</ele>
        <time>2012-07-15T10:32:39Z</time>
      </trkpt>
      <trkpt lat="42.91333" lon="1.43874">
        <ele>1547.86</ele>
        <time>2012-07-15T10:33:37Z</time>
      </trkpt>
      <trkpt lat="42.91312" lon="1.43907">
        <ele>1540.65</ele>
        <time>2012-07-15T10:34:24Z</time>
      </trkpt>
      <trkpt lat="42.91296" lon="1.43954">
        <ele>1528.15</ele>
        <time>2012-07-15T10:35:43Z</time>
      </trkpt>
      <trkpt lat="42.91285" lon="1.43994">
        <ele>1516.14</ele>
        <time>2012-07-15T10:37:09Z</time>
      </trkpt>
      <trkpt lat="42.91262" lon="1.44047">
        <ele>1503.16</ele>
        <time>2012-07-15T10:38:24Z</time>
      </trkpt>
      <trkpt lat="42.91252" lon="1.44089">
        <ele>1496.43</ele>
        <time>2012-07-15T10:38:36Z</time>
      </trkpt>
      <trkpt lat="42.91236" lon="1.44146">
        <ele>1493.06</ele>
        <time>2012-07-15T10:38:44Z</time>
      </trkpt>
      <trkpt lat="42.91212" lon="1.44194">
        <ele>1493.06</ele>
        <time>2012-07-15T10:39:28Z</time>
      </trkpt>
      <trkpt lat="42.91195" lon="1.4425">
        <ele>1493.55</ele>
        <time>2012-07-15T10:40:24Z</time>
      </trkpt>
      <trkpt lat="42.91183" lon="1.44313">
        <ele>1504.12</ele>
        <time>2012-07-15T10:41:14Z</time>
      </trkpt>
      <trkpt lat="42.91179" lon="1.44377">
        <ele>1512.77</ele>
        <time>2012-07-15T10:42:19Z</time>
      </trkpt>
      <trkpt lat="42.91168" lon="1.44434">
        <ele>1517.1</ele>
        <time>2012-07-15T10:43:05Z</time>
      </trkpt>
      <trkpt lat="42.91149" lon="1.44485">
        <ele>1514.21</ele>
        <time>2012-07-15T10:43:30Z</time>
      </trkpt>
      <trkpt lat="42.91113" lon="1.44505">
        <ele>1506.52</ele>
        <time>2012-07-15T10:43:44Z</time>
      </trkpt>
      <trkpt lat="42.91076" lon="1.4452">
        <ele>1498.83</ele>
        <time>2012-07-15T10:43:58Z</time>
      </trkpt>
      <trkpt lat="42.91044" lon="1.44541">
        <ele>1492.1</ele>
        <time>2012-07-15T10:44:12Z</time>
      </trkpt>
      <trkpt lat="42.91007" lon="1.44564">
        <ele>1485.37</ele>
        <time>2012-07-15T10:44:23Z</time>
      </trkpt>
      <trkpt lat="42.90976" lon="1.44606">
        <ele>1480.09</ele>
        <time>2012-07-15T10:44:31Z</time>
      </trkpt>
      <trkpt lat="42.90955" lon="1.44637">
        <ele>1475.28</ele>
        <time>2012-07-15T10:44:38Z</time>
      </trkpt>
      <trkpt lat="42.90921" lon="1.44688">
        <ele>1470.95</ele>
        <time>2012-07-15T10:44:44Z</time>
      </trkpt>
      <trkpt lat="42.90898" lon="1.4472">
        <ele>1472.88</ele>
        <time>2012-07-15T10:45:15Z</time>
      </trkpt>
      <trkpt lat="42.90881" lon="1.44745">
        <ele>1472.4</ele>
        <time>2012-07-15T10:48:29Z</time>
      </trkpt>
      <trkpt lat="42.90875" lon="1.44795">
        <ele>1473.84</ele>
        <time>2012-07-15T10:48:47Z</time>
      </trkpt>
      <trkpt lat="42.90855" lon="1.4485">
        <ele>1477.68</ele>
        <time>2012-07-15T10:49:08Z</time>
      </trkpt>
      <trkpt lat="42.90848" lon="1.44902">
        <ele>1480.57</ele>
        <time>2012-07-15T10:49:31Z</time>
      </trkpt>
      <trkpt lat="42.90834" lon="1.44965">
        <ele>1480.09</ele>
        <time>2012-07-15T10:49:51Z</time>
      </trkpt>
      <trkpt lat="42.90832" lon="1.45018">
        <ele>1483.93</ele>
        <time>2012-07-15T10:50:14Z</time>
      </trkpt>
      <trkpt lat="42.90821" lon="1.45077">
        <ele>1488.74</ele>
        <time>2012-07-15T10:50:46Z</time>
      </trkpt>
      <trkpt lat="42.90809" lon="1.45125">
        <ele>1494.03</ele>
        <time>2012-07-15T10:51:29Z</time>
      </trkpt>
      <trkpt lat="42.90801" lon="1.45177">
        <ele>1499.79</ele>
        <time>2012-07-15T10:52:11Z</time>
      </trkpt>
      <trkpt lat="42.90787" lon="1.45232">
        <ele>1505.56</ele>
        <time>2012-07-15T10:52:45Z</time>
      </trkpt>
      <trkpt lat="42.90772" lon="1.45286">
        <ele>1507.97</ele>
        <time>2012-07-15T10:53:16Z</time>
      </trkpt>
      <trkpt lat="42.90752" lon="1.45328">
        <ele>1508.93</ele>
        <time>2012-07-15T10:53:39Z</time>
      </trkpt>
      <trkpt lat="42.9073" lon="1.45374">
        <ele>1507.48</ele>
        <time>2012-07-15T10:54:02Z</time>
      </trkpt>
      <trkpt lat="42.907" lon="1.45416">
        <ele>1511.81</ele>
        <time>2012-07-15T10:54:31Z</time>
      </trkpt>
      <trkpt lat="42.90668" lon="1.45474">
        <ele>1519.98</ele>
        <time>2012-07-15T10:58:03Z</time>
      </trkpt>
      <trkpt lat="42.90629" lon="1.45494">
        <ele>1527.67</ele>
        <time>2012-07-15T10:59:00Z</time>
      </trkpt>
      <trkpt lat="42.90614" lon="1.45546">
        <ele>1532.96</ele>
        <time>2012-07-15T10:59:40Z</time>
      </trkpt>
      <trkpt lat="42.90597" lon="1.45594">
        <ele>1535.84</ele>
        <time>2012-07-15T11:00:10Z</time>
      </trkpt>
      <trkpt lat="42.90586" lon="1.45635">
        <ele>1536.8</ele>
        <time>2012-07-15T11:00:29Z</time>
      </trkpt>
      <trkpt lat="42.90576" lon="1.45681">
        <ele>1536.8</ele>
        <time>2012-07-15T11:00:47Z</time>
      </trkpt>
      <trkpt lat="42.90569" lon="1.45723">
        <ele>1537.29</ele>
        <time>2012-07-15T11:01:04Z</time>
      </trkpt>
      <trkpt lat="42.90569" lon="1.45767">
        <ele>1536.8</ele>
        <time>2012-07-15T11:01:20Z</time>
      </trkpt>
      <trkpt lat="42.90564" lon="1.4581">
        <ele>1534.4</ele>
        <time>2012-07-15T11:01:39Z</time>
      </trkpt>
      <trkpt lat="42.90566" lon="1.4585">
        <ele>1531.52</ele>
        <time>2012-07-15T11:02:27Z</time>
      </trkpt>
      <trkpt lat="42.90566" lon="1.45892">
        <ele>1532.96</ele>
        <time>2012-07-15T11:03:03Z</time>
      </trkpt>
      <trkpt lat="42.90571" lon="1.45935">
        <ele>1532.48</ele>
        <time>2012-07-15T11:03:45Z</time>
      </trkpt>
      <trkpt lat="42.90566" lon="1.45976">
        <ele>1533.92</ele>
        <time>2012-07-15T11:04:55Z</time>
      </trkpt>
      <trkpt lat="42.9056" lon="1.46018">
        <ele>1533.92</ele>
        <time>2012-07-15T11:05:12Z</time>
      </trkpt>
      <trkpt lat="42.90557" lon="1.46062">
        <ele>1535.36</ele>
        <time>2012-07-15T11:05:32Z</time>
      </trkpt>
      <trkpt lat="42.90561" lon="1.46103">
        <ele>1537.29</ele>
        <time>2012-07-15T11:06:46Z</time>
      </trkpt>
      <trkpt lat="42.90562" lon="1.46146">
        <ele>1542.57</ele>
        <time>2012-07-15T11:07:08Z</time>
      </trkpt>
      <trkpt lat="42.90567" lon="1.46188">
        <ele>1549.3</ele>
        <time>2012-07-15T11:08:39Z</time>
      </trkpt>
      <trkpt lat="42.9057" lon="1.46232">
        <ele>1556.51</ele>
        <time>2012-07-15T11:09:04Z</time>
      </trkpt>
      <trkpt lat="42.90578" lon="1.4627">
        <ele>1562.28</ele>
        <time>2012-07-15T11:10:45Z</time>
      </trkpt>
      <trkpt lat="42.90581" lon="1.46313">
        <ele>1568.05</ele>
        <time>2012-07-15T11:11:10Z</time>
      </trkpt>
      <trkpt lat="42.90589" lon="1.46357">
        <ele>1573.33</ele>
        <time>2012-07-15T11:15:22Z</time>
      </trkpt>
      <trkpt lat="42.90595" lon="1.46399">
        <ele>1579.1</ele>
        <time>2012-07-15T11:15:51Z</time>
      </trkpt>
      <trkpt lat="42.90608" lon="1.46439">
        <ele>1582.95</ele>
        <time>2012-07-15T11:16:21Z</time>
      </trkpt>
      <trkpt lat="42.90636" lon="1.46455">
        <ele>1581.99</ele>
        <time>2012-07-15T11:17:26Z</time>
      </trkpt>
      <trkpt lat="42.90667" lon="1.46465">
        <ele>1581.51</ele>
        <time>2012-07-15T11:17:45Z</time>
      </trkpt>
      <trkpt lat="42.90699" lon="1.46479">
        <ele>1580.06</ele>
        <time>2012-07-15T11:18:04Z</time>
      </trkpt>
      <trkpt lat="42.90727" lon="1.46493">
        <ele>1580.06</ele>
        <time>2012-07-15T11:18:22Z</time>
      </trkpt>
      <trkpt lat="42.90759" lon="1.46502">
        <ele>1579.1</ele>
        <time>2012-07-15T11:18:40Z</time>
      </trkpt>
      <trkpt lat="42.9079" lon="1.46517">
        <ele>1579.1</ele>
        <time>2012-07-15T11:19:00Z</time>
      </trkpt>
      <trkpt lat="42.9082" lon="1.4653">
        <ele>1578.62</ele>
        <time>2012-07-15T11:19:18Z</time>
      </trkpt>
      <trkpt lat="42.90851" lon="1.4654">
        <ele>1577.66</ele>
        <time>2012-07-15T11:19:37Z</time>
      </trkpt>
      <trkpt lat="42.90883" lon="1.46549">
        <ele>1576.7</ele>
        <time>2012-07-15T11:19:51Z</time>
      </trkpt>
      <trkpt lat="42.90915" lon="1.46556">
        <ele>1578.14</ele>
        <time>2012-07-15T11:20:09Z</time>
      </trkpt>
      <trkpt lat="42.90946" lon="1.46559">
        <ele>1577.66</ele>
        <time>2012-07-15T11:20:33Z</time>
      </trkpt>
      <trkpt lat="42.90976" lon="1.46569">
        <ele>1578.14</ele>
        <time>2012-07-15T11:21:08Z</time>
      </trkpt>
      <trkpt lat="42.91006" lon="1.4658">
        <ele>1581.03</ele>
        <time>2012-07-15T11:21:48Z</time>
      </trkpt>
      <trkpt lat="42.91039" lon="1.46587">
        <ele>1582.47</ele>
        <time>2012-07-15T11:22:28Z</time>
      </trkpt>
      <trkpt lat="42.9107" lon="1.4659">
        <ele>1581.51</ele>
        <time>2012-07-15T11:22:56Z</time>
      </trkpt>
      <trkpt lat="42.91101" lon="1.46598">
        <ele>1579.58</ele>
        <time>2012-07-15T11:24:01Z</time>
      </trkpt>
      <trkpt lat="42.91131" lon="1.46609">
        <ele>1580.54</ele>
        <time>2012-07-15T11:24:41Z</time>
      </trkpt>
      <trkpt lat="42.91162" lon="1.46609">
        <ele>1579.1</ele>
        <time>2012-07-15T11:25:19Z</time>
      </trkpt>
      <trkpt lat="42.91194" lon="1.46608">
        <ele>1577.66</ele>
        <time>2012-07-15T11:25:44Z</time>
      </trkpt>
      <trkpt lat="42.91223" lon="1.466">
        <ele>1574.78</ele>
        <time>2012-07-15T11:26:44Z</time>
      </trkpt>
      <trkpt lat="42.91254" lon="1.46599">
        <ele>1572.85</ele>
        <time>2012-07-15T11:27:13Z</time>
      </trkpt>
      <trkpt lat="42.91287" lon="1.46597">
        <ele>1570.93</ele>
        <time>2012-07-15T11:27:27Z</time>
      </trkpt>
      <trkpt lat="42.91321" lon="1.466">
        <ele>1568.05</ele>
        <time>2012-07-15T11:27:40Z</time>
      </trkpt>
      <trkpt lat="42.91353" lon="1.46599">
        <ele>1564.68</ele>
        <time>2012-07-15T11:27:51Z</time>
      </trkpt>
      <trkpt lat="42.91386" lon="1.466">
        <ele>1559.88</ele>
        <time>2012-07-15T11:28:10Z</time>
      </trkpt>
      <trkpt lat="42.91407" lon="1.46622">
        <ele>1555.55</ele>
        <time>2012-07-15T11:28:43Z</time>
      </trkpt>
      <trkpt lat="42.91426" lon="1.46656">
        <ele>1546.9</ele>
        <time>2012-07-15T11:29:06Z</time>
      </trkpt>
      <trkpt lat="42.91459" lon="1.46657">
        <ele>1541.13</ele>
        <time>2012-07-15T11:29:17Z</time>
      </trkpt>
      <trkpt lat="42.91493" lon="1.46656">
        <ele>1536.8</ele>
        <time>2012-07-15T11:29:25Z</time>
      </trkpt>
      <trkpt lat="42.91526" lon="1.46661">
        <ele>1534.4</ele>
        <time>2012-07-15T11:29:35Z</time>
      </trkpt>
      <trkpt lat="42.91559" lon="1.46659">
        <ele>1531.04</ele>
        <time>2012-07-15T11:29:46Z</time>
      </trkpt>
      <trkpt lat="42.9159" lon="1.46664">
        <ele>1530.08</ele>
        <time>2012-07-15T11:29:59Z</time>
      </trkpt>
      <trkpt lat="42.91622" lon="1.46673">
        <ele>1528.63</ele>
        <time>2012-07-15T11:30:15Z</time>
      </trkpt>
      <trkpt lat="42.91652" lon="1.46683">
        <ele>1528.63</ele>
        <time>2012-07-15T11:30:31Z</time>
      </trkpt>
      <trkpt lat="42.91683" lon="1.46695">
        <ele>1529.59</ele>
        <time>2012-07-15T11:30:48Z</time>
      </trkpt>
      <trkpt lat="42.91717" lon="1.46702">
        <ele>1528.63</ele>
        <time>2012-07-15T11:31:04Z</time>
      </trkpt>
      <trkpt lat="42.9175" lon="1.46706">
        <ele>1528.15</ele>
        <time>2012-07-15T11:31:20Z</time>
      </trkpt>
      <trkpt lat="42.9178" lon="1.4672">
        <ele>1526.23</ele>
        <time>2012-07-15T11:31:38Z</time>
      </trkpt>
      <trkpt lat="42.91809" lon="1.46739">
        <ele>1524.31</ele>
        <time>2012-07-15T11:31:54Z</time>
      </trkpt>
      <trkpt lat="42.91839" lon="1.46752">
        <ele>1520.46</ele>
        <time>2012-07-15T11:32:09Z</time>
      </trkpt>
      <trkpt lat="42.91879" lon="1.46767">
        <ele>1514.21</ele>
        <time>2012-07-15T11:32:15Z</time>
      </trkpt>
      <trkpt lat="42.91916" lon="1.46782">
        <ele>1510.37</ele>
        <time>2012-07-15T11:32:21Z</time>
      </trkpt>
      <trkpt lat="42.91941" lon="1.46788">
        <ele>1506.04</ele>
        <time>2012-07-15T11:33:21Z</time>
      </trkpt>
      <trkpt lat="42.91968" lon="1.46807">
        <ele>1494.51</ele>
        <time>2012-07-15T11:34:00Z</time>
      </trkpt>
      <trkpt lat="42.91996" lon="1.46836">
        <ele>1488.74</ele>
        <time>2012-07-15T11:34:31Z</time>
      </trkpt>
      <trkpt lat="42.9202" lon="1.46866">
        <ele>1482.49</ele>
        <time>2012-07-15T11:34:38Z</time>
      </trkpt>
      <trkpt lat="42.92046" lon="1.46896">
        <ele>1478.16</ele>
        <time>2012-07-15T11:34:45Z</time>
      </trkpt>
      <trkpt lat="42.92072" lon="1.46923">
        <ele>1475.76</ele>
        <time>2012-07-15T11:34:57Z</time>
      </trkpt>
      <trkpt lat="42.92098" lon="1.46927">
        <ele>1473.84</ele>
        <time>2012-07-15T11:35:42Z</time>
      </trkpt>
      <trkpt lat="42.92124" lon="1.46906">
        <ele>1469.03</ele>
        <time>2012-07-15T11:36:03Z</time>
      </trkpt>
      <trkpt lat="42.92148" lon="1.46905">
        <ele>1460.86</ele>
        <time>2012-07-15T11:37:45Z</time>
      </trkpt>
      <trkpt lat="42.92171" lon="1.46889">
        <ele>1451.73</ele>
        <time>2012-07-15T11:38:40Z</time>
      </trkpt>
      <trkpt lat="42.92201" lon="1.46889">
        <ele>1441.15</ele>
        <time>2012-07-15T11:39:03Z</time>
      </trkpt>
      <trkpt lat="42.92233" lon="1.46899">
        <ele>1432.02</ele>
        <time>2012-07-15T11:39:20Z</time>
      </trkpt>
      <trkpt lat="42.92267" lon="1.46908">
        <ele>1423.37</ele>
        <time>2012-07-15T11:39:28Z</time>
      </trkpt>
      <trkpt lat="42.92298" lon="1.46917">
        <ele>1416.64</ele>
        <time>2012-07-15T11:39:36Z</time>
      </trkpt>
      <trkpt lat="42.92332" lon="1.46935">
        <ele>1409.91</ele>
        <time>2012-07-15T11:39:48Z</time>
      </trkpt>
      <trkpt lat="42.92339" lon="1.46959">
        <ele>1407.51</ele>
        <time>2012-07-15T11:40:02Z</time>
      </trkpt>
      <trkpt lat="42.92308" lon="1.46981">
        <ele>1404.62</ele>
        <time>2012-07-15T11:40:14Z</time>
      </trkpt>
      <trkpt lat="42.92281" lon="1.47">
        <ele>1391.65</ele>
        <time>2012-07-15T11:40:37Z</time>
      </trkpt>
      <trkpt lat="42.92254" lon="1.47025">
        <ele>1382.51</ele>
        <time>2012-07-15T11:41:02Z</time>
      </trkpt>
      <trkpt lat="42.92257" lon="1.4705">
        <ele>1374.82</ele>
        <time>2012-07-15T11:41:21Z</time>
      </trkpt>
      <trkpt lat="42.92285" lon="1.47059">
        <ele>1368.57</ele>
        <time>2012-07-15T11:41:47Z</time>
      </trkpt>
      <trkpt lat="42.92316" lon="1.47069">
        <ele>1361.84</ele>
        <time>2012-07-15T11:42:01Z</time>
      </trkpt>
      <trkpt lat="42.92355" lon="1.47064">
        <ele>1352.71</ele>
        <time>2012-07-15T11:42:17Z</time>
      </trkpt>
      <trkpt lat="42.92394" lon="1.47089">
        <ele>1346.46</ele>
        <time>2012-07-15T11:42:38Z</time>
      </trkpt>
      <trkpt lat="42.92425" lon="1.471">
        <ele>1339.25</ele>
        <time>2012-07-15T11:42:54Z</time>
      </trkpt>
      <trkpt lat="42.92463" lon="1.47098">
        <ele>1328.68</ele>
        <time>2012-07-15T11:43:15Z</time>
      </trkpt>
      <trkpt lat="42.92481" lon="1.47108">
        <ele>1321.95</ele>
        <time>2012-07-15T11:43:31Z</time>
      </trkpt>
      <trkpt lat="42.92459" lon="1.47124">
        <ele>1317.14</ele>
        <time>2012-07-15T11:43:48Z</time>
      </trkpt>
      <trkpt lat="42.92442" lon="1.47157">
        <ele>1310.9</ele>
        <time>2012-07-15T11:44:06Z</time>
      </trkpt>
      <trkpt lat="42.92409" lon="1.47172">
        <ele>1303.69</ele>
        <time>2012-07-15T11:44:22Z</time>
      </trkpt>
      <trkpt lat="42.92383" lon="1.47194">
        <ele>1295.99</ele>
        <time>2012-07-15T11:44:38Z</time>
      </trkpt>
      <trkpt lat="42.9235" lon="1.47227">
        <ele>1289.27</ele>
        <time>2012-07-15T11:44:50Z</time>
      </trkpt>
      <trkpt lat="42.92331" lon="1.47266">
        <ele>1287.34</ele>
        <time>2012-07-15T11:45:43Z</time>
      </trkpt>
      <trkpt lat="42.92311" lon="1.47298">
        <ele>1287.82</ele>
        <time>2012-07-15T11:45:56Z</time>
      </trkpt>
      <trkpt lat="42.92288" lon="1.47329">
        <ele>1289.75</ele>
        <time>2012-07-15T11:46:07Z</time>
      </trkpt>
      <trkpt lat="42.92264" lon="1.47363">
        <ele>1291.19</ele>
        <time>2012-07-15T11:46:18Z</time>
      </trkpt>
      <trkpt lat="42.92248" lon="1.47404">
        <ele>1292.15</ele>
        <time>2012-07-15T11:46:28Z</time>
      </trkpt>
      <trkpt lat="42.92233" lon="1.47447">
        <ele>1293.11</ele>
        <time>2012-07-15T11:46:39Z</time>
      </trkpt>
      <trkpt lat="42.9222" lon="1.47489">
        <ele>1294.07</ele>
        <time>2012-07-15T11:46:50Z</time>
      </trkpt>
      <trkpt lat="42.92203" lon="1.47529">
        <ele>1295.51</ele>
        <time>2012-07-15T11:47:02Z</time>
      </trkpt>
      <trkpt lat="42.92185" lon="1.47568">
        <ele>1297.92</ele>
        <time>2012-07-15T11:47:14Z</time>
      </trkpt>
      <trkpt lat="42.92169" lon="1.47606">
        <ele>1300.32</ele>
        <time>2012-07-15T11:47:26Z</time>
      </trkpt>
      <trkpt lat="42.92136" lon="1.47625">
        <ele>1302.24</ele>
        <time>2012-07-15T11:47:40Z</time>
      </trkpt>
      <trkpt lat="42.92103" lon="1.47613">
        <ele>1304.17</ele>
        <time>2012-07-15T11:47:54Z</time>
      </trkpt>
      <trkpt lat="42.92069" lon="1.47605">
        <ele>1305.61</ele>
        <time>2012-07-15T11:48:09Z</time>
      </trkpt>
      <trkpt lat="42.92049" lon="1.47573">
        <ele>1306.09</ele>
        <time>2012-07-15T11:48:20Z</time>
      </trkpt>
      <trkpt lat="42.92025" lon="1.47537">
        <ele>1305.13</ele>
        <time>2012-07-15T11:48:29Z</time>
      </trkpt>
      <trkpt lat="42.91989" lon="1.47538">
        <ele>1303.69</ele>
        <time>2012-07-15T11:48:37Z</time>
      </trkpt>
      <trkpt lat="42.91958" lon="1.47543">
        <ele>1303.2</ele>
        <time>2012-07-15T11:48:46Z</time>
      </trkpt>
      <trkpt lat="42.91939" lon="1.47515">
        <ele>1300.32</ele>
        <time>2012-07-15T11:48:52Z</time>
      </trkpt>
      <trkpt lat="42.91917" lon="1.47471">
        <ele>1297.92</ele>
        <time>2012-07-15T11:48:57Z</time>
      </trkpt>
      <trkpt lat="42.919" lon="1.47434">
        <ele>1295.03</ele>
        <time>2012-07-15T11:49:02Z</time>
      </trkpt>
      <trkpt lat="42.91876" lon="1.47405">
        <ele>1293.11</ele>
        <time>2012-07-15T11:49:07Z</time>
      </trkpt>
      <trkpt lat="42.91844" lon="1.47392">
        <ele>1292.15</ele>
        <time>2012-07-15T11:49:13Z</time>
      </trkpt>
      <trkpt lat="42.91814" lon="1.47396">
        <ele>1292.63</ele>
        <time>2012-07-15T11:49:19Z</time>
      </trkpt>
      <trkpt lat="42.9178" lon="1.47399">
        <ele>1292.63</ele>
        <time>2012-07-15T11:49:25Z</time>
      </trkpt>
      <trkpt lat="42.91747" lon="1.47398">
        <ele>1294.55</ele>
        <time>2012-07-15T11:49:33Z</time>
      </trkpt>
      <trkpt lat="42.91713" lon="1.47382">
        <ele>1297.92</ele>
        <time>2012-07-15T11:49:48Z</time>
      </trkpt>
      <trkpt lat="42.9168" lon="1.47383">
        <ele>1300.32</ele>
        <time>2012-07-15T11:50:03Z</time>
      </trkpt>
      <trkpt lat="42.91644" lon="1.47389">
        <ele>1301.76</ele>
        <time>2012-07-15T11:50:20Z</time>
      </trkpt>
      <trkpt lat="42.91612" lon="1.47382">
        <ele>1300.32</ele>
        <time>2012-07-15T11:50:31Z</time>
      </trkpt>
      <trkpt lat="42.91581" lon="1.47379">
        <ele>1300.32</ele>
        <time>2012-07-15T11:50:41Z</time>
      </trkpt>
      <trkpt lat="42.91552" lon="1.47397">
        <ele>1302.24</ele>
        <time>2012-07-15T11:50:54Z</time>
      </trkpt>
      <trkpt lat="42.91529" lon="1.47429">
        <ele>1304.17</ele>
        <time>2012-07-15T11:51:06Z</time>
      </trkpt>
      <trkpt lat="42.91513" lon="1.4747">
        <ele>1305.13</ele>
        <time>2012-07-15T11:51:17Z</time>
      </trkpt>
      <trkpt lat="42.91499" lon="1.47512">
        <ele>1307.05</ele>
        <time>2012-07-15T11:51:29Z</time>
      </trkpt>
      <trkpt lat="42.91499" lon="1.47555">
        <ele>1309.93</ele>
        <time>2012-07-15T11:51:43Z</time>
      </trkpt>
      <trkpt lat="42.91521" lon="1.47593">
        <ele>1312.34</ele>
        <time>2012-07-15T11:51:58Z</time>
      </trkpt>
      <trkpt lat="42.9152" lon="1.47626">
        <ele>1314.26</ele>
        <time>2012-07-15T12:01:20Z</time>
      </trkpt>
      <trkpt lat="42.91499" lon="1.47667">
        <ele>1312.82</ele>
        <time>2012-07-15T12:01:29Z</time>
      </trkpt>
      <trkpt lat="42.91471" lon="1.47693">
        <ele>1311.38</ele>
        <time>2012-07-15T12:01:37Z</time>
      </trkpt>
      <trkpt lat="42.91497" lon="1.47719">
        <ele>1312.82</ele>
        <time>2012-07-15T12:01:48Z</time>
      </trkpt>
      <trkpt lat="42.91527" lon="1.47733">
        <ele>1316.66</ele>
        <time>2012-07-15T12:02:01Z</time>
      </trkpt>
      <trkpt lat="42.91556" lon="1.47757">
        <ele>1319.55</ele>
        <time>2012-07-15T12:02:15Z</time>
      </trkpt>
      <trkpt lat="42.91588" lon="1.47773">
        <ele>1322.91</ele>
        <time>2012-07-15T12:02:32Z</time>
      </trkpt>
      <trkpt lat="42.91616" lon="1.47809">
        <ele>1326.28</ele>
        <time>2012-07-15T12:02:54Z</time>
      </trkpt>
      <trkpt lat="42.91638" lon="1.4785">
        <ele>1328.2</ele>
        <time>2012-07-15T12:03:10Z</time>
      </trkpt>
      <trkpt lat="42.91648" lon="1.47896">
        <ele>1330.12</ele>
        <time>2012-07-15T12:03:26Z</time>
      </trkpt>
      <trkpt lat="42.91656" lon="1.47939">
        <ele>1331.56</ele>
        <time>2012-07-15T12:03:41Z</time>
      </trkpt>
      <trkpt lat="42.91646" lon="1.47977">
        <ele>1332.04</ele>
        <time>2012-07-15T12:03:56Z</time>
      </trkpt>
      <trkpt lat="42.91658" lon="1.48034">
        <ele>1333.49</ele>
        <time>2012-07-15T12:04:12Z</time>
      </trkpt>
      <trkpt lat="42.91659" lon="1.48085">
        <ele>1335.89</ele>
        <time>2012-07-15T12:04:30Z</time>
      </trkpt>
      <trkpt lat="42.91646" lon="1.4812">
        <ele>1337.33</ele>
        <time>2012-07-15T12:04:48Z</time>
      </trkpt>
      <trkpt lat="42.91661" lon="1.4816">
        <ele>1338.29</ele>
        <time>2012-07-15T12:05:02Z</time>
      </trkpt>
      <trkpt lat="42.91679" lon="1.48168">
        <ele>1339.25</ele>
        <time>2012-07-15T12:05:15Z</time>
      </trkpt>
      <trkpt lat="42.91697" lon="1.48161">
        <ele>1339.25</ele>
        <time>2012-07-15T12:05:26Z</time>
      </trkpt>
      <trkpt lat="42.91733" lon="1.48174">
        <ele>1339.25</ele>
        <time>2012-07-15T12:05:36Z</time>
      </trkpt>
      <trkpt lat="42.91761" lon="1.48205">
        <ele>1338.29</ele>
        <time>2012-07-15T12:05:44Z</time>
      </trkpt>
      <trkpt lat="42.91791" lon="1.48251">
        <ele>1335.89</ele>
        <time>2012-07-15T12:05:52Z</time>
      </trkpt>
      <trkpt lat="42.91805" lon="1.48299">
        <ele>1334.45</ele>
        <time>2012-07-15T12:06:00Z</time>
      </trkpt>
      <trkpt lat="42.91816" lon="1.48338">
        <ele>1333.49</ele>
        <time>2012-07-15T12:06:05Z</time>
      </trkpt>
      <trkpt lat="42.91828" lon="1.48381">
        <ele>1331.56</ele>
        <time>2012-07-15T12:06:10Z</time>
      </trkpt>
      <trkpt lat="42.91857" lon="1.48422">
        <ele>1329.64</ele>
        <time>2012-07-15T12:06:16Z</time>
      </trkpt>
      <trkpt lat="42.91917" lon="1.48462">
        <ele>1331.08</ele>
        <time>2012-07-15T12:06:42Z</time>
      </trkpt>
      <trkpt lat="42.91952" lon="1.48485">
        <ele>1330.12</ele>
        <time>2012-07-15T12:06:54Z</time>
      </trkpt>
      <trkpt lat="42.91984" lon="1.48511">
        <ele>1331.56</ele>
        <time>2012-07-15T12:07:20Z</time>
      </trkpt>
      <trkpt lat="42.92015" lon="1.48557">
        <ele>1329.16</ele>
        <time>2012-07-15T12:07:36Z</time>
      </trkpt>
      <trkpt lat="42.92034" lon="1.48608">
        <ele>1324.35</ele>
        <time>2012-07-15T12:07:42Z</time>
      </trkpt>
      <trkpt lat="42.92043" lon="1.48654">
        <ele>1321.47</ele>
        <time>2012-07-15T12:07:47Z</time>
      </trkpt>
      <trkpt lat="42.92059" lon="1.48704">
        <ele>1320.03</ele>
        <time>2012-07-15T12:07:53Z</time>
      </trkpt>
      <trkpt lat="42.92066" lon="1.48747">
        <ele>1318.59</ele>
        <time>2012-07-15T12:07:58Z</time>
      </trkpt>
      <trkpt lat="42.92077" lon="1.48796">
        <ele>1315.22</ele>
        <time>2012-07-15T12:08:03Z</time>
      </trkpt>
      <trkpt lat="42.92084" lon="1.48846">
        <ele>1313.78</ele>
        <time>2012-07-15T12:08:09Z</time>
      </trkpt>
      <trkpt lat="42.92082" lon="1.48891">
        <ele>1313.78</ele>
        <time>2012-07-15T12:08:17Z</time>
      </trkpt>
      <trkpt lat="42.92089" lon="1.48944">
        <ele>1317.62</ele>
        <time>2012-07-15T12:08:28Z</time>
      </trkpt>
      <trkpt lat="42.9211" lon="1.49015">
        <ele>1317.14</ele>
        <time>2012-07-15T12:08:48Z</time>
      </trkpt>
      <trkpt lat="42.92156" lon="1.49094">
        <ele>1314.26</ele>
        <time>2012-07-15T12:09:55Z</time>
      </trkpt>
      <trkpt lat="42.92207" lon="1.49178">
        <ele>1316.18</ele>
        <time>2012-07-15T12:10:18Z</time>
      </trkpt>
      <trkpt lat="42.92271" lon="1.49235">
        <ele>1318.59</ele>
        <time>2012-07-15T12:10:39Z</time>
      </trkpt>
      <trkpt lat="42.92339" lon="1.49251">
        <ele>1317.62</ele>
        <time>2012-07-15T12:10:59Z</time>
      </trkpt>
      <trkpt lat="42.9236" lon="1.49277">
        <ele>1318.1</ele>
        <time>2012-07-15T12:11:22Z</time>
      </trkpt>
      <trkpt lat="42.92403" lon="1.4934">
        <ele>1326.28</ele>
        <time>2012-07-15T12:12:40Z</time>
      </trkpt>
      <trkpt lat="42.92422" lon="1.49378">
        <ele>1335.89</ele>
        <time>2012-07-15T12:13:29Z</time>
      </trkpt>
      <trkpt lat="42.9242" lon="1.49426">
        <ele>1344.06</ele>
        <time>2012-07-15T12:14:33Z</time>
      </trkpt>
      <trkpt lat="42.92418" lon="1.49463">
        <ele>1350.31</ele>
        <time>2012-07-15T12:15:34Z</time>
      </trkpt>
      <trkpt lat="42.92415" lon="1.49507">
        <ele>1357.52</ele>
        <time>2012-07-15T12:16:17Z</time>
      </trkpt>
      <trkpt lat="42.92405" lon="1.49549">
        <ele>1362.33</ele>
        <time>2012-07-15T12:16:52Z</time>
      </trkpt>
      <trkpt lat="42.92387" lon="1.49566">
        <ele>1362.81</ele>
        <time>2012-07-15T12:18:31Z</time>
      </trkpt>
      <trkpt lat="42.9236" lon="1.49551">
        <ele>1366.17</ele>
        <time>2012-07-15T12:18:58Z</time>
      </trkpt>
      <trkpt lat="42.92336" lon="1.49524">
        <ele>1370.02</ele>
        <time>2012-07-15T12:19:32Z</time>
      </trkpt>
      <trkpt lat="42.92306" lon="1.4954">
        <ele>1376.26</ele>
        <time>2012-07-15T12:20:19Z</time>
      </trkpt>
      <trkpt lat="42.92277" lon="1.49543">
        <ele>1381.07</ele>
        <time>2012-07-15T12:20:58Z</time>
      </trkpt>
      <trkpt lat="42.9225" lon="1.49523">
        <ele>1376.75</ele>
        <time>2012-07-15T12:23:17Z</time>
      </trkpt>
      <trkpt lat="42.92224" lon="1.49476">
        <ele>1372.9</ele>
        <time>2012-07-15T12:23:59Z</time>
      </trkpt>
      <trkpt lat="42.92197" lon="1.49454">
        <ele>1370.02</ele>
        <time>2012-07-15T12:24:09Z</time>
      </trkpt>
      <trkpt lat="42.92174" lon="1.49414">
        <ele>1372.9</ele>
        <time>2012-07-15T12:24:29Z</time>
      </trkpt>
      <trkpt lat="42.92147" lon="1.4938">
        <ele>1376.75</ele>
        <time>2012-07-15T12:24:53Z</time>
      </trkpt>
      <trkpt lat="42.92123" lon="1.49359">
        <ele>1378.67</ele>
        <time>2012-07-15T12:33:38Z</time>
      </trkpt>
      <trkpt lat="42.9215" lon="1.49387">
        <ele>1375.3</ele>
        <time>2012-07-15T12:33:53Z</time>
      </trkpt>
      <trkpt lat="42.92177" lon="1.49427">
        <ele>1371.46</ele>
        <time>2012-07-15T12:34:02Z</time>
      </trkpt>
      <trkpt lat="42.92205" lon="1.4946">
        <ele>1369.05</ele>
        <time>2012-07-15T12:34:12Z</time>
      </trkpt>
      <trkpt lat="42.92239" lon="1.49505">
        <ele>1373.86</ele>
        <time>2012-07-15T12:34:49Z</time>
      </trkpt>
      <trkpt lat="42.92263" lon="1.4954">
        <ele>1378.19</ele>
        <time>2012-07-15T12:35:44Z</time>
      </trkpt>
      <trkpt lat="42.92296" lon="1.49542">
        <ele>1377.71</ele>
        <time>2012-07-15T12:36:12Z</time>
      </trkpt>
      <trkpt lat="42.92326" lon="1.49532">
        <ele>1372.42</ele>
        <time>2012-07-15T12:36:26Z</time>
      </trkpt>
      <trkpt lat="42.92365" lon="1.49517">
        <ele>1364.25</ele>
        <time>2012-07-15T12:36:34Z</time>
      </trkpt>
      <trkpt lat="42.92396" lon="1.49489">
        <ele>1355.12</ele>
        <time>2012-07-15T12:36:42Z</time>
      </trkpt>
      <trkpt lat="42.92419" lon="1.49463">
        <ele>1348.39</ele>
        <time>2012-07-15T12:36:51Z</time>
      </trkpt>
      <trkpt lat="42.92412" lon="1.4941">
        <ele>1338.29</ele>
        <time>2012-07-15T12:36:59Z</time>
      </trkpt>
      <trkpt lat="42.92432" lon="1.49378">
        <ele>1329.64</ele>
        <time>2012-07-15T12:37:08Z</time>
      </trkpt>
      <trkpt lat="42.92457" lon="1.49349">
        <ele>1324.83</ele>
        <time>2012-07-15T12:37:14Z</time>
      </trkpt>
      <trkpt lat="42.9247" lon="1.49315">
        <ele>1318.1</ele>
        <time>2012-07-15T12:37:23Z</time>
      </trkpt>
      <trkpt lat="42.92441" lon="1.4931">
        <ele>1312.34</ele>
        <time>2012-07-15T12:37:32Z</time>
      </trkpt>
      <trkpt lat="42.9247" lon="1.49286">
        <ele>1308.01</ele>
        <time>2012-07-15T12:37:38Z</time>
      </trkpt>
      <trkpt lat="42.92501" lon="1.49258">
        <ele>1303.2</ele>
        <time>2012-07-15T12:37:43Z</time>
      </trkpt>
      <trkpt lat="42.9253" lon="1.49225">
        <ele>1297.44</ele>
        <time>2012-07-15T12:37:48Z</time>
      </trkpt>
      <trkpt lat="42.92556" lon="1.49192">
        <ele>1293.59</ele>
        <time>2012-07-15T12:37:53Z</time>
      </trkpt>
      <trkpt lat="42.9258" lon="1.49166">
        <ele>1287.82</ele>
        <time>2012-07-15T12:37:58Z</time>
      </trkpt>
      <trkpt lat="42.92604" lon="1.49135">
        <ele>1284.46</ele>
        <time>2012-07-15T12:38:03Z</time>
      </trkpt>
      <trkpt lat="42.92629" lon="1.49102">
        <ele>1280.13</ele>
        <time>2012-07-15T12:38:09Z</time>
      </trkpt>
      <trkpt lat="42.92655" lon="1.49065">
        <ele>1273.88</ele>
        <time>2012-07-15T12:38:14Z</time>
      </trkpt>
      <trkpt lat="42.9267" lon="1.49025">
        <ele>1269.56</ele>
        <time>2012-07-15T12:38:20Z</time>
      </trkpt>
      <trkpt lat="42.92685" lon="1.48986">
        <ele>1264.27</ele>
        <time>2012-07-15T12:38:25Z</time>
      </trkpt>
      <trkpt lat="42.92694" lon="1.48936">
        <ele>1259.46</ele>
        <time>2012-07-15T12:38:31Z</time>
      </trkpt>
      <trkpt lat="42.92708" lon="1.48892">
        <ele>1254.66</ele>
        <time>2012-07-15T12:38:38Z</time>
      </trkpt>
      <trkpt lat="42.92722" lon="1.48849">
        <ele>1248.89</ele>
        <time>2012-07-15T12:38:45Z</time>
      </trkpt>
      <trkpt lat="42.92739" lon="1.48813">
        <ele>1245.53</ele>
        <time>2012-07-15T12:38:54Z</time>
      </trkpt>
      <trkpt lat="42.92758" lon="1.48783">
        <ele>1242.64</ele>
        <time>2012-07-15T12:40:58Z</time>
      </trkpt>
      <trkpt lat="42.92745" lon="1.48804">
        <ele>1243.12</ele>
        <time>2012-07-15T12:41:25Z</time>
      </trkpt>
      <trkpt lat="42.92755" lon="1.4877">
        <ele>1240.24</ele>
        <time>2012-07-15T12:41:38Z</time>
      </trkpt>
      <trkpt lat="42.92774" lon="1.48731">
        <ele>1234.47</ele>
        <time>2012-07-15T12:41:44Z</time>
      </trkpt>
      <trkpt lat="42.92789" lon="1.48691">
        <ele>1229.66</ele>
        <time>2012-07-15T12:41:51Z</time>
      </trkpt>
      <trkpt lat="42.92803" lon="1.48646">
        <ele>1223.9</ele>
        <time>2012-07-15T12:41:59Z</time>
      </trkpt>
      <trkpt lat="42.92815" lon="1.48603">
        <ele>1219.09</ele>
        <time>2012-07-15T12:42:06Z</time>
      </trkpt>
      <trkpt lat="42.92827" lon="1.48558">
        <ele>1215.24</ele>
        <time>2012-07-15T12:42:12Z</time>
      </trkpt>
      <trkpt lat="42.92839" lon="1.48514">
        <ele>1211.4</ele>
        <time>2012-07-15T12:42:20Z</time>
      </trkpt>
      <trkpt lat="42.92857" lon="1.48484">
        <ele>1207.55</ele>
        <time>2012-07-15T12:42:33Z</time>
      </trkpt>
      <trkpt lat="42.92891" lon="1.48502">
        <ele>1201.3</ele>
        <time>2012-07-15T12:43:29Z</time>
      </trkpt>
      <trkpt lat="42.92916" lon="1.48533">
        <ele>1196.02</ele>
        <time>2012-07-15T12:43:40Z</time>
      </trkpt>
      <trkpt lat="42.92943" lon="1.48566">
        <ele>1189.29</ele>
        <time>2012-07-15T12:43:49Z</time>
      </trkpt>
      <trkpt lat="42.92962" lon="1.48608">
        <ele>1183.52</ele>
        <time>2012-07-15T12:44:00Z</time>
      </trkpt>
      <trkpt lat="42.92979" lon="1.48655">
        <ele>1178.23</ele>
        <time>2012-07-15T12:44:10Z</time>
      </trkpt>
      <trkpt lat="42.92998" lon="1.48697">
        <ele>1171.98</ele>
        <time>2012-07-15T12:44:19Z</time>
      </trkpt>
      <trkpt lat="42.93017" lon="1.48732">
        <ele>1166.22</ele>
        <time>2012-07-15T12:44:29Z</time>
      </trkpt>
      <trkpt lat="42.93055" lon="1.48765">
        <ele>1161.89</ele>
        <time>2012-07-15T12:45:06Z</time>
      </trkpt>
      <trkpt lat="42.9307" lon="1.48804">
        <ele>1157.56</ele>
        <time>2012-07-15T12:45:29Z</time>
      </trkpt>
      <trkpt lat="42.93093" lon="1.48856">
        <ele>1151.8</ele>
        <time>2012-07-15T12:46:05Z</time>
      </trkpt>
      <trkpt lat="42.93118" lon="1.48831">
        <ele>1145.07</ele>
        <time>2012-07-15T12:46:25Z</time>
      </trkpt>
      <trkpt lat="42.93143" lon="1.48793">
        <ele>1137.86</ele>
        <time>2012-07-15T12:46:40Z</time>
      </trkpt>
      <trkpt lat="42.93168" lon="1.48763">
        <ele>1130.65</ele>
        <time>2012-07-15T12:46:53Z</time>
      </trkpt>
      <trkpt lat="42.93201" lon="1.48751">
        <ele>1123.44</ele>
        <time>2012-07-15T12:47:05Z</time>
      </trkpt>
      <trkpt lat="42.93244" lon="1.48734">
        <ele>1116.23</ele>
        <time>2012-07-15T12:47:36Z</time>
      </trkpt>
      <trkpt lat="42.93279" lon="1.48727">
        <ele>1110.94</ele>
        <time>2012-07-15T12:47:53Z</time>
      </trkpt>
      <trkpt lat="42.93315" lon="1.48711">
        <ele>1102.77</ele>
        <time>2012-07-15T12:48:05Z</time>
      </trkpt>
      <trkpt lat="42.93359" lon="1.48694">
        <ele>1096.52</ele>
        <time>2012-07-15T12:48:25Z</time>
      </trkpt>
      <trkpt lat="42.93408" lon="1.48688">
        <ele>1089.79</ele>
        <time>2012-07-15T12:48:43Z</time>
      </trkpt>
      <trkpt lat="42.93466" lon="1.48662">
        <ele>1083.54</ele>
        <time>2012-07-15T12:48:59Z</time>
      </trkpt>
      <trkpt lat="42.93512" lon="1.48662">
        <ele>1076.81</ele>
        <time>2012-07-15T12:49:14Z</time>
      </trkpt>
      <trkpt lat="42.9354" lon="1.48691">
        <ele>1072.49</ele>
        <time>2012-07-15T12:49:23Z</time>
      </trkpt>
      <trkpt lat="42.93538" lon="1.48737">
        <ele>1067.68</ele>
        <time>2012-07-15T12:49:31Z</time>
      </trkpt>
      <trkpt lat="42.93533" lon="1.48785">
        <ele>1061.91</ele>
        <time>2012-07-15T12:49:38Z</time>
      </trkpt>
      <trkpt lat="42.93525" lon="1.48829">
        <ele>1057.11</ele>
        <time>2012-07-15T12:49:46Z</time>
      </trkpt>
      <trkpt lat="42.93511" lon="1.48875">
        <ele>1050.38</ele>
        <time>2012-07-15T12:49:56Z</time>
      </trkpt>
      <trkpt lat="42.93502" lon="1.4892">
        <ele>1044.61</ele>
        <time>2012-07-15T12:50:05Z</time>
      </trkpt>
      <trkpt lat="42.93517" lon="1.48963">
        <ele>1037.4</ele>
        <time>2012-07-15T12:50:14Z</time>
      </trkpt>
      <trkpt lat="42.93531" lon="1.49018">
        <ele>1030.67</ele>
        <time>2012-07-15T12:50:28Z</time>
      </trkpt>
      <trkpt lat="42.93552" lon="1.4906">
        <ele>1024.9</ele>
        <time>2012-07-15T12:50:38Z</time>
      </trkpt>
      <trkpt lat="42.9357" lon="1.49112">
        <ele>1019.13</ele>
        <time>2012-07-15T12:50:48Z</time>
      </trkpt>
      <trkpt lat="42.93591" lon="1.49162">
        <ele>1011.93</ele>
        <time>2012-07-15T12:50:58Z</time>
      </trkpt>
      <trkpt lat="42.93608" lon="1.49208">
        <ele>1005.2</ele>
        <time>2012-07-15T12:51:24Z</time>
      </trkpt>
      <trkpt lat="42.9364" lon="1.49244">
        <ele>997.99</ele>
        <time>2012-07-15T12:51:32Z</time>
      </trkpt>
      <trkpt lat="42.93672" lon="1.49272">
        <ele>990.78</ele>
        <time>2012-07-15T12:51:39Z</time>
      </trkpt>
      <trkpt lat="42.93702" lon="1.49298">
        <ele>984.53</ele>
        <time>2012-07-15T12:51:47Z</time>
      </trkpt>
      <trkpt lat="42.93738" lon="1.49333">
        <ele>977.8</ele>
        <time>2012-07-15T12:52:01Z</time>
      </trkpt>
      <trkpt lat="42.93769" lon="1.49368">
        <ele>971.55</ele>
        <time>2012-07-15T12:52:08Z</time>
      </trkpt>
      <trkpt lat="42.93796" lon="1.49405">
        <ele>965.3</ele>
        <time>2012-07-15T12:52:16Z</time>
      </trkpt>
      <trkpt lat="42.9383" lon="1.4944">
        <ele>960.49</ele>
        <time>2012-07-15T12:52:21Z</time>
      </trkpt>
      <trkpt lat="42.93845" lon="1.49472">
        <ele>956.65</ele>
        <time>2012-07-15T12:52:25Z</time>
      </trkpt>
      <trkpt lat="42.93873" lon="1.4951">
        <ele>955.69</ele>
        <time>2012-07-15T12:52:30Z</time>
      </trkpt>
      <trkpt lat="42.93895" lon="1.49546">
        <ele>954.25</ele>
        <time>2012-07-15T12:52:34Z</time>
      </trkpt>
      <trkpt lat="42.93921" lon="1.49585">
        <ele>952.8</ele>
        <time>2012-07-15T12:52:39Z</time>
      </trkpt>
      <trkpt lat="42.93923" lon="1.49599">
        <ele>953.77</ele>
        <time>2012-07-15T12:53:38Z</time>
      </trkpt>
      <trkpt lat="42.93947" lon="1.49613">
        <ele>952.32</ele>
        <time>2012-07-15T12:54:36Z</time>
      </trkpt>
      <trkpt lat="42.93978" lon="1.49638">
        <ele>951.36</ele>
        <time>2012-07-15T12:54:43Z</time>
      </trkpt>
      <trkpt lat="42.94009" lon="1.49661">
        <ele>950.4</ele>
        <time>2012-07-15T12:54:49Z</time>
      </trkpt>
      <trkpt lat="42.94043" lon="1.49685">
        <ele>949.44</ele>
        <time>2012-07-15T12:54:55Z</time>
      </trkpt>
      <trkpt lat="42.94073" lon="1.49706">
        <ele>948.48</ele>
        <time>2012-07-15T12:55:00Z</time>
      </trkpt>
      <trkpt lat="42.94094" lon="1.49741">
        <ele>948</ele>
        <time>2012-07-15T12:55:05Z</time>
      </trkpt>
      <trkpt lat="42.94108" lon="1.49782">
        <ele>946.56</ele>
        <time>2012-07-15T12:55:10Z</time>
      </trkpt>
      <trkpt lat="42.94128" lon="1.4982">
        <ele>946.07</ele>
        <time>2012-07-15T12:55:20Z</time>
      </trkpt>
      <trkpt lat="42.9412" lon="1.49811">
        <ele>943.67</ele>
        <time>2012-07-15T13:00:54Z</time>
      </trkpt>
      <trkpt lat="42.94109" lon="1.49768">
        <ele>941.75</ele>
        <time>2012-07-15T13:01:04Z</time>
      </trkpt>
      <trkpt lat="42.9409" lon="1.49724">
        <ele>941.27</ele>
        <time>2012-07-15T13:01:13Z</time>
      </trkpt>
      <trkpt lat="42.94068" lon="1.49689">
        <ele>942.71</ele>
        <time>2012-07-15T13:01:24Z</time>
      </trkpt>
      <trkpt lat="42.94038" lon="1.49667">
        <ele>942.23</ele>
        <time>2012-07-15T13:01:36Z</time>
      </trkpt>
      <trkpt lat="42.94009" lon="1.49641">
        <ele>942.23</ele>
        <time>2012-07-15T13:01:46Z</time>
      </trkpt>
      <trkpt lat="42.93976" lon="1.49621">
        <ele>942.71</ele>
        <time>2012-07-15T13:01:55Z</time>
      </trkpt>
      <trkpt lat="42.93947" lon="1.49598">
        <ele>942.71</ele>
        <time>2012-07-15T13:02:04Z</time>
      </trkpt>
      <trkpt lat="42.93921" lon="1.4957">
        <ele>942.71</ele>
        <time>2012-07-15T13:02:13Z</time>
      </trkpt>
      <trkpt lat="42.93895" lon="1.49535">
        <ele>942.71</ele>
        <time>2012-07-15T13:02:22Z</time>
      </trkpt>
      <trkpt lat="42.93869" lon="1.49497">
        <ele>942.71</ele>
        <time>2012-07-15T13:02:31Z</time>
      </trkpt>
      <trkpt lat="42.93845" lon="1.49459">
        <ele>941.75</ele>
        <time>2012-07-15T13:02:39Z</time>
      </trkpt>
      <trkpt lat="42.93824" lon="1.49412">
        <ele>939.83</ele>
        <time>2012-07-15T13:02:49Z</time>
      </trkpt>
      <trkpt lat="42.93806" lon="1.49366">
        <ele>936.94</ele>
        <time>2012-07-15T13:03:00Z</time>
      </trkpt>
      <trkpt lat="42.93784" lon="1.49294">
        <ele>933.1</ele>
        <time>2012-07-15T13:03:06Z</time>
      </trkpt>
      <trkpt lat="42.93756" lon="1.49253">
        <ele>931.17</ele>
        <time>2012-07-15T13:03:11Z</time>
      </trkpt>
      <trkpt lat="42.9373" lon="1.49221">
        <ele>931.17</ele>
        <time>2012-07-15T13:03:16Z</time>
      </trkpt>
      <trkpt lat="42.93716" lon="1.49182">
        <ele>932.62</ele>
        <time>2012-07-15T13:03:22Z</time>
      </trkpt>
      <trkpt lat="42.9371" lon="1.49127">
        <ele>930.69</ele>
        <time>2012-07-15T13:03:29Z</time>
      </trkpt>
      <trkpt lat="42.93715" lon="1.49074">
        <ele>926.37</ele>
        <time>2012-07-15T13:03:34Z</time>
      </trkpt>
      <trkpt lat="42.93744" lon="1.49061">
        <ele>926.37</ele>
        <time>2012-07-15T13:03:40Z</time>
      </trkpt>
      <trkpt lat="42.93775" lon="1.49059">
        <ele>918.68</ele>
        <time>2012-07-15T13:03:48Z</time>
      </trkpt>
      <trkpt lat="42.93808" lon="1.49031">
        <ele>912.91</ele>
        <time>2012-07-15T13:03:52Z</time>
      </trkpt>
      <trkpt lat="42.93831" lon="1.4899">
        <ele>909.54</ele>
        <time>2012-07-15T13:03:57Z</time>
      </trkpt>
      <trkpt lat="42.93821" lon="1.48941">
        <ele>907.14</ele>
        <time>2012-07-15T13:04:03Z</time>
      </trkpt>
      <trkpt lat="42.93844" lon="1.48889">
        <ele>904.74</ele>
        <time>2012-07-15T13:04:08Z</time>
      </trkpt>
      <trkpt lat="42.93869" lon="1.48852">
        <ele>905.22</ele>
        <time>2012-07-15T13:04:13Z</time>
      </trkpt>
      <trkpt lat="42.93885" lon="1.4881">
        <ele>904.74</ele>
        <time>2012-07-15T13:04:18Z</time>
      </trkpt>
      <trkpt lat="42.93914" lon="1.48767">
        <ele>900.89</ele>
        <time>2012-07-15T13:04:22Z</time>
      </trkpt>
      <trkpt lat="42.93933" lon="1.4873">
        <ele>896.09</ele>
        <time>2012-07-15T13:04:25Z</time>
      </trkpt>
      <trkpt lat="42.93956" lon="1.48683">
        <ele>893.68</ele>
        <time>2012-07-15T13:04:29Z</time>
      </trkpt>
      <trkpt lat="42.93976" lon="1.48651">
        <ele>893.68</ele>
        <time>2012-07-15T13:04:33Z</time>
      </trkpt>
      <trkpt lat="42.94001" lon="1.48626">
        <ele>896.09</ele>
        <time>2012-07-15T13:04:38Z</time>
      </trkpt>
      <trkpt lat="42.94023" lon="1.48591">
        <ele>892.72</ele>
        <time>2012-07-15T13:04:45Z</time>
      </trkpt>
      <trkpt lat="42.94047" lon="1.48559">
        <ele>887.43</ele>
        <time>2012-07-15T13:04:50Z</time>
      </trkpt>
      <trkpt lat="42.94071" lon="1.48528">
        <ele>881.67</ele>
        <time>2012-07-15T13:04:55Z</time>
      </trkpt>
      <trkpt lat="42.94094" lon="1.48492">
        <ele>876.86</ele>
        <time>2012-07-15T13:05:07Z</time>
      </trkpt>
      <trkpt lat="42.94129" lon="1.48495">
        <ele>869.65</ele>
        <time>2012-07-15T13:06:11Z</time>
      </trkpt>
      <trkpt lat="42.94161" lon="1.48497">
        <ele>866.77</ele>
        <time>2012-07-15T13:06:32Z</time>
      </trkpt>
      <trkpt lat="42.94186" lon="1.4852">
        <ele>860.52</ele>
        <time>2012-07-15T13:06:56Z</time>
      </trkpt>
      <trkpt lat="42.94207" lon="1.48485">
        <ele>853.31</ele>
        <time>2012-07-15T13:07:07Z</time>
      </trkpt>
      <trkpt lat="42.94223" lon="1.48447">
        <ele>849.46</ele>
        <time>2012-07-15T13:07:58Z</time>
      </trkpt>
      <trkpt lat="42.94248" lon="1.48416">
        <ele>842.25</ele>
        <time>2012-07-15T13:08:11Z</time>
      </trkpt>
      <trkpt lat="42.94251" lon="1.48368">
        <ele>837.93</ele>
        <time>2012-07-15T13:09:01Z</time>
      </trkpt>
      <trkpt lat="42.94244" lon="1.48326">
        <ele>826.39</ele>
        <time>2012-07-15T13:09:20Z</time>
      </trkpt>
      <trkpt lat="42.94279" lon="1.48316">
        <ele>814.37</ele>
        <time>2012-07-15T13:09:32Z</time>
      </trkpt>
      <trkpt lat="42.9431" lon="1.4835">
        <ele>803.8</ele>
        <time>2012-07-15T13:09:42Z</time>
      </trkpt>
      <trkpt lat="42.94336" lon="1.48401">
        <ele>795.15</ele>
        <time>2012-07-15T13:09:58Z</time>
      </trkpt>
      <trkpt lat="42.94337" lon="1.4837">
        <ele>791.78</ele>
        <time>2012-07-15T13:10:24Z</time>
      </trkpt>
      <trkpt lat="42.94337" lon="1.48319">
        <ele>787.46</ele>
        <time>2012-07-15T13:10:57Z</time>
      </trkpt>
      <trkpt lat="42.94319" lon="1.48265">
        <ele>783.13</ele>
        <time>2012-07-15T13:11:03Z</time>
      </trkpt>
      <trkpt lat="42.94301" lon="1.48226">
        <ele>779.77</ele>
        <time>2012-07-15T13:11:09Z</time>
      </trkpt>
      <trkpt lat="42.94272" lon="1.48206">
        <ele>775.44</ele>
        <time>2012-07-15T13:11:15Z</time>
      </trkpt>
      <trkpt lat="42.94239" lon="1.48209">
        <ele>772.56</ele>
        <time>2012-07-15T13:11:21Z</time>
      </trkpt>
      <trkpt lat="42.94202" lon="1.48218">
        <ele>771.11</ele>
        <time>2012-07-15T13:11:28Z</time>
      </trkpt>
      <trkpt lat="42.94166" lon="1.48217">
        <ele>769.67</ele>
        <time>2012-07-15T13:11:35Z</time>
      </trkpt>
      <trkpt lat="42.9414" lon="1.48191">
        <ele>770.15</ele>
        <time>2012-07-15T13:11:42Z</time>
      </trkpt>
      <trkpt lat="42.94119" lon="1.48158">
        <ele>767.27</ele>
        <time>2012-07-15T13:12:13Z</time>
      </trkpt>
      <trkpt lat="42.94094" lon="1.48124">
        <ele>757.18</ele>
        <time>2012-07-15T13:12:59Z</time>
      </trkpt>
      <trkpt lat="42.94058" lon="1.4812">
        <ele>744.68</ele>
        <time>2012-07-15T13:13:14Z</time>
      </trkpt>
      <trkpt lat="42.94017" lon="1.48133">
        <ele>729.3</ele>
        <time>2012-07-15T13:14:41Z</time>
      </trkpt>
      <trkpt lat="42.94015" lon="1.4811">
        <ele>736.99</ele>
        <time>2012-07-15T13:15:57Z</time>
      </trkpt>
      <trkpt lat="42.94035" lon="1.48061">
        <ele>749</ele>
        <time>2012-07-15T13:17:17Z</time>
      </trkpt>
      <trkpt lat="42.94061" lon="1.48017">
        <ele>756.69</ele>
        <time>2012-07-15T13:18:03Z</time>
      </trkpt>
      <trkpt lat="42.94083" lon="1.47982">
        <ele>769.19</ele>
        <time>2012-07-15T13:19:16Z</time>
      </trkpt>
      <trkpt lat="42.94116" lon="1.47953">
        <ele>782.17</ele>
        <time>2012-07-15T13:20:22Z</time>
      </trkpt>
      <trkpt lat="42.94132" lon="1.47908">
        <ele>790.34</ele>
        <time>2012-07-15T13:21:26Z</time>
      </trkpt>
      <trkpt lat="42.94134" lon="1.47874">
        <ele>798.99</ele>
        <time>2012-07-15T13:22:44Z</time>
      </trkpt>
      <trkpt lat="42.94183" lon="1.47855">
        <ele>806.2</ele>
        <time>2012-07-15T13:24:03Z</time>
      </trkpt>
      <trkpt lat="42.94214" lon="1.47863">
        <ele>801.4</ele>
        <time>2012-07-15T13:24:11Z</time>
      </trkpt>
      <trkpt lat="42.94246" lon="1.47864">
        <ele>803.8</ele>
        <time>2012-07-15T13:24:24Z</time>
      </trkpt>
      <trkpt lat="42.94277" lon="1.47888">
        <ele>805.72</ele>
        <time>2012-07-15T13:24:41Z</time>
      </trkpt>
      <trkpt lat="42.94321" lon="1.47889">
        <ele>809.57</ele>
        <time>2012-07-15T13:25:05Z</time>
      </trkpt>
      <trkpt lat="42.94368" lon="1.47879">
        <ele>814.85</ele>
        <time>2012-07-15T13:25:30Z</time>
      </trkpt>
      <trkpt lat="42.94404" lon="1.47891">
        <ele>817.74</ele>
        <time>2012-07-15T13:25:55Z</time>
      </trkpt>
      <trkpt lat="42.94439" lon="1.47887">
        <ele>813.89</ele>
        <time>2012-07-15T13:26:11Z</time>
      </trkpt>
      <trkpt lat="42.9445" lon="1.47831">
        <ele>809.57</ele>
        <time>2012-07-15T13:26:17Z</time>
      </trkpt>
      <trkpt lat="42.94442" lon="1.47776">
        <ele>807.64</ele>
        <time>2012-07-15T13:26:23Z</time>
      </trkpt>
      <trkpt lat="42.94438" lon="1.47744">
        <ele>805.24</ele>
        <time>2012-07-15T13:26:34Z</time>
      </trkpt>
      <trkpt lat="42.94427" lon="1.47694">
        <ele>800.44</ele>
        <time>2012-07-15T13:26:47Z</time>
      </trkpt>
      <trkpt lat="42.944" lon="1.47655">
        <ele>799.47</ele>
        <time>2012-07-15T13:27:07Z</time>
      </trkpt>
      <trkpt lat="42.94365" lon="1.4765">
        <ele>803.8</ele>
        <time>2012-07-15T13:30:19Z</time>
      </trkpt>
      <trkpt lat="42.94329" lon="1.47622">
        <ele>807.64</ele>
        <time>2012-07-15T13:31:00Z</time>
      </trkpt>
      <trkpt lat="42.94296" lon="1.47572">
        <ele>810.53</ele>
        <time>2012-07-15T13:31:29Z</time>
      </trkpt>
      <trkpt lat="42.94267" lon="1.47514">
        <ele>812.93</ele>
        <time>2012-07-15T13:31:55Z</time>
      </trkpt>
      <trkpt lat="42.94241" lon="1.47445">
        <ele>817.26</ele>
        <time>2012-07-15T13:32:29Z</time>
      </trkpt>
      <trkpt lat="42.94214" lon="1.47399">
        <ele>818.22</ele>
        <time>2012-07-15T13:32:53Z</time>
      </trkpt>
      <trkpt lat="42.94174" lon="1.47358">
        <ele>819.66</ele>
        <time>2012-07-15T13:33:18Z</time>
      </trkpt>
      <trkpt lat="42.9416" lon="1.47299">
        <ele>821.1</ele>
        <time>2012-07-15T13:33:38Z</time>
      </trkpt>
      <trkpt lat="42.94157" lon="1.47231">
        <ele>821.1</ele>
        <time>2012-07-15T13:34:00Z</time>
      </trkpt>
      <trkpt lat="42.94127" lon="1.47199">
        <ele>829.27</ele>
        <time>2012-07-15T13:34:57Z</time>
      </trkpt>
      <trkpt lat="42.9409" lon="1.4719">
        <ele>836.96</ele>
        <time>2012-07-15T13:35:53Z</time>
      </trkpt>
      <trkpt lat="42.94055" lon="1.47178">
        <ele>844.18</ele>
        <time>2012-07-15T13:36:48Z</time>
      </trkpt>
      <trkpt lat="42.94021" lon="1.47166">
        <ele>853.79</ele>
        <time>2012-07-15T13:37:46Z</time>
      </trkpt>
      <trkpt lat="42.93985" lon="1.4713">
        <ele>858.59</ele>
        <time>2012-07-15T13:38:42Z</time>
      </trkpt>
      <trkpt lat="42.93953" lon="1.47086">
        <ele>859.56</ele>
        <time>2012-07-15T13:39:03Z</time>
      </trkpt>
      <trkpt lat="42.93917" lon="1.47043">
        <ele>860.52</ele>
        <time>2012-07-15T13:39:27Z</time>
      </trkpt>
      <trkpt lat="42.93882" lon="1.46999">
        <ele>859.08</ele>
        <time>2012-07-15T13:39:49Z</time>
      </trkpt>
      <trkpt lat="42.93897" lon="1.46954">
        <ele>858.59</ele>
        <time>2012-07-15T13:40:29Z</time>
      </trkpt>
      <trkpt lat="42.9393" lon="1.46917">
        <ele>853.79</ele>
        <time>2012-07-15T13:41:03Z</time>
      </trkpt>
      <trkpt lat="42.93912" lon="1.46887">
        <ele>868.21</ele>
        <time>2012-07-15T13:42:38Z</time>
      </trkpt>
      <trkpt lat="42.93908" lon="1.46839">
        <ele>880.71</ele>
        <time>2012-07-15T13:45:38Z</time>
      </trkpt>
      <trkpt lat="42.93886" lon="1.46773">
        <ele>890.32</ele>
        <time>2012-07-15T13:46:26Z</time>
      </trkpt>
      <trkpt lat="42.93865" lon="1.46712">
        <ele>897.05</ele>
        <time>2012-07-15T13:47:40Z</time>
      </trkpt>
      <trkpt lat="42.93848" lon="1.46639">
        <ele>899.45</ele>
        <time>2012-07-15T13:48:14Z</time>
      </trkpt>
      <trkpt lat="42.9383" lon="1.46578">
        <ele>902.33</ele>
        <time>2012-07-15T13:48:40Z</time>
      </trkpt>
      <trkpt lat="42.93849" lon="1.46527">
        <ele>909.06</ele>
        <time>2012-07-15T13:50:06Z</time>
      </trkpt>
      <trkpt lat="42.93838" lon="1.46474">
        <ele>920.6</ele>
        <time>2012-07-15T13:51:22Z</time>
      </trkpt>
      <trkpt lat="42.93839" lon="1.46432">
        <ele>928.77</ele>
        <time>2012-07-15T13:52:32Z</time>
      </trkpt>
      <trkpt lat="42.93849" lon="1.46377">
        <ele>935.98</ele>
        <time>2012-07-15T13:53:53Z</time>
      </trkpt>
      <trkpt lat="42.9385" lon="1.46314">
        <ele>937.9</ele>
        <time>2012-07-15T13:54:25Z</time>
      </trkpt>
      <trkpt lat="42.93886" lon="1.46306">
        <ele>926.37</ele>
        <time>2012-07-15T13:54:50Z</time>
      </trkpt>
      <trkpt lat="42.93917" lon="1.46286">
        <ele>917.72</ele>
        <time>2012-07-15T13:55:04Z</time>
      </trkpt>
      <trkpt lat="42.93949" lon="1.46265">
        <ele>911.47</ele>
        <time>2012-07-15T13:55:15Z</time>
      </trkpt>
      <trkpt lat="42.93973" lon="1.46239">
        <ele>907.62</ele>
        <time>2012-07-15T13:55:22Z</time>
      </trkpt>
      <trkpt lat="42.93999" lon="1.46203">
        <ele>904.74</ele>
        <time>2012-07-15T13:55:31Z</time>
      </trkpt>
      <trkpt lat="42.93998" lon="1.46152">
        <ele>902.33</ele>
        <time>2012-07-15T13:55:39Z</time>
      </trkpt>
      <trkpt lat="42.93992" lon="1.46108">
        <ele>898.01</ele>
        <time>2012-07-15T13:55:50Z</time>
      </trkpt>
      <trkpt lat="42.9399" lon="1.46071">
        <ele>892.72</ele>
        <time>2012-07-15T13:56:02Z</time>
      </trkpt>
      <trkpt lat="42.93985" lon="1.46061">
        <ele>888.88</ele>
        <time>2012-07-15T14:02:41Z</time>
      </trkpt>
      <trkpt lat="42.94021" lon="1.46055">
        <ele>886.95</ele>
        <time>2012-07-15T14:02:50Z</time>
      </trkpt>
      <trkpt lat="42.94054" lon="1.46067">
        <ele>883.11</ele>
        <time>2012-07-15T14:02:55Z</time>
      </trkpt>
      <trkpt lat="42.94074" lon="1.46102">
        <ele>879.26</ele>
        <time>2012-07-15T14:02:59Z</time>
      </trkpt>
      <trkpt lat="42.94088" lon="1.46146">
        <ele>875.9</ele>
        <time>2012-07-15T14:03:03Z</time>
      </trkpt>
      <trkpt lat="42.94095" lon="1.46186">
        <ele>873.01</ele>
        <time>2012-07-15T14:03:09Z</time>
      </trkpt>
      <trkpt lat="42.941" lon="1.46136">
        <ele>870.61</ele>
        <time>2012-07-15T14:03:16Z</time>
      </trkpt>
      <trkpt lat="42.94099" lon="1.46087">
        <ele>867.25</ele>
        <time>2012-07-15T14:03:21Z</time>
      </trkpt>
      <trkpt lat="42.9409" lon="1.46039">
        <ele>863.88</ele>
        <time>2012-07-15T14:03:27Z</time>
      </trkpt>
      <trkpt lat="42.94107" lon="1.46055">
        <ele>861.96</ele>
        <time>2012-07-15T14:03:34Z</time>
      </trkpt>
      <trkpt lat="42.94121" lon="1.46102">
        <ele>858.59</ele>
        <time>2012-07-15T14:03:39Z</time>
      </trkpt>
      <trkpt lat="42.94138" lon="1.46148">
        <ele>854.27</ele>
        <time>2012-07-15T14:03:43Z</time>
      </trkpt>
      <trkpt lat="42.94152" lon="1.46189">
        <ele>849.94</ele>
        <time>2012-07-15T14:03:46Z</time>
      </trkpt>
      <trkpt lat="42.94159" lon="1.46231">
        <ele>847.54</ele>
        <time>2012-07-15T14:03:50Z</time>
      </trkpt>
      <trkpt lat="42.9417" lon="1.4622">
        <ele>846.58</ele>
        <time>2012-07-15T14:03:56Z</time>
      </trkpt>
      <trkpt lat="42.94167" lon="1.46172">
        <ele>843.21</ele>
        <time>2012-07-15T14:04:01Z</time>
      </trkpt>
      <trkpt lat="42.94168" lon="1.46119">
        <ele>840.81</ele>
        <time>2012-07-15T14:04:06Z</time>
      </trkpt>
      <trkpt lat="42.94173" lon="1.4607">
        <ele>836</ele>
        <time>2012-07-15T14:04:10Z</time>
      </trkpt>
      <trkpt lat="42.94173" lon="1.46023">
        <ele>833.12</ele>
        <time>2012-07-15T14:04:14Z</time>
      </trkpt>
      <trkpt lat="42.9417" lon="1.45995">
        <ele>830.24</ele>
        <time>2012-07-15T14:04:21Z</time>
      </trkpt>
      <trkpt lat="42.94187" lon="1.46037">
        <ele>828.31</ele>
        <time>2012-07-15T14:04:26Z</time>
      </trkpt>
      <trkpt lat="42.94192" lon="1.46081">
        <ele>824.95</ele>
        <time>2012-07-15T14:04:30Z</time>
      </trkpt>
      <trkpt lat="42.94212" lon="1.46122">
        <ele>820.62</ele>
        <time>2012-07-15T14:04:34Z</time>
      </trkpt>
      <trkpt lat="42.94248" lon="1.46149">
        <ele>817.26</ele>
        <time>2012-07-15T14:04:38Z</time>
      </trkpt>
      <trkpt lat="42.94274" lon="1.46177">
        <ele>814.85</ele>
        <time>2012-07-15T14:04:42Z</time>
      </trkpt>
      <trkpt lat="42.94289" lon="1.46227">
        <ele>811.01</ele>
        <time>2012-07-15T14:04:46Z</time>
      </trkpt>
      <trkpt lat="42.94287" lon="1.46281">
        <ele>808.13</ele>
        <time>2012-07-15T14:04:50Z</time>
      </trkpt>
      <trkpt lat="42.94261" lon="1.46326">
        <ele>803.8</ele>
        <time>2012-07-15T14:04:54Z</time>
      </trkpt>
      <trkpt lat="42.9423" lon="1.46343">
        <ele>800.44</ele>
        <time>2012-07-15T14:04:57Z</time>
      </trkpt>
      <trkpt lat="42.94193" lon="1.46365">
        <ele>795.15</ele>
        <time>2012-07-15T14:05:01Z</time>
      </trkpt>
      <trkpt lat="42.94174" lon="1.46413">
        <ele>792.26</ele>
        <time>2012-07-15T14:05:05Z</time>
      </trkpt>
      <trkpt lat="42.94162" lon="1.46447">
        <ele>789.86</ele>
        <time>2012-07-15T14:05:11Z</time>
      </trkpt>
      <trkpt lat="42.94179" lon="1.46413">
        <ele>788.42</ele>
        <time>2012-07-15T14:05:17Z</time>
      </trkpt>
      <trkpt lat="42.94208" lon="1.46383">
        <ele>784.09</ele>
        <time>2012-07-15T14:05:22Z</time>
      </trkpt>
      <trkpt lat="42.94254" lon="1.46383">
        <ele>778.81</ele>
        <time>2012-07-15T14:05:26Z</time>
      </trkpt>
      <trkpt lat="42.94291" lon="1.46375">
        <ele>776.4</ele>
        <time>2012-07-15T14:05:29Z</time>
      </trkpt>
      <trkpt lat="42.94324" lon="1.46362">
        <ele>772.08</ele>
        <time>2012-07-15T14:05:32Z</time>
      </trkpt>
      <trkpt lat="42.94353" lon="1.4634">
        <ele>768.71</ele>
        <time>2012-07-15T14:05:35Z</time>
      </trkpt>
      <trkpt lat="42.94384" lon="1.46314">
        <ele>765.83</ele>
        <time>2012-07-15T14:05:38Z</time>
      </trkpt>
      <trkpt lat="42.94412" lon="1.46279">
        <ele>764.39</ele>
        <time>2012-07-15T14:05:41Z</time>
      </trkpt>
      <trkpt lat="42.94439" lon="1.46228">
        <ele>760.54</ele>
        <time>2012-07-15T14:05:45Z</time>
      </trkpt>
      <trkpt lat="42.94454" lon="1.46185">
        <ele>756.21</ele>
        <time>2012-07-15T14:05:49Z</time>
      </trkpt>
      <trkpt lat="42.9445" lon="1.46135">
        <ele>753.81</ele>
        <time>2012-07-15T14:05:53Z</time>
      </trkpt>
      <trkpt lat="42.94435" lon="1.46085">
        <ele>750.45</ele>
        <time>2012-07-15T14:05:57Z</time>
      </trkpt>
      <trkpt lat="42.94407" lon="1.46044">
        <ele>746.12</ele>
        <time>2012-07-15T14:06:01Z</time>
      </trkpt>
      <trkpt lat="42.94372" lon="1.46034">
        <ele>744.68</ele>
        <time>2012-07-15T14:06:06Z</time>
      </trkpt>
      <trkpt lat="42.94381" lon="1.46012">
        <ele>742.28</ele>
        <time>2012-07-15T14:06:12Z</time>
      </trkpt>
      <trkpt lat="42.9442" lon="1.46026">
        <ele>738.91</ele>
        <time>2012-07-15T14:06:17Z</time>
      </trkpt>
      <trkpt lat="42.94453" lon="1.46056">
        <ele>735.07</ele>
        <time>2012-07-15T14:06:21Z</time>
      </trkpt>
      <trkpt lat="42.94489" lon="1.46084">
        <ele>730.26</ele>
        <time>2012-07-15T14:06:25Z</time>
      </trkpt>
      <trkpt lat="42.94516" lon="1.4611">
        <ele>726.41</ele>
        <time>2012-07-15T14:06:28Z</time>
      </trkpt>
      <trkpt lat="42.94541" lon="1.46146">
        <ele>723.53</ele>
        <time>2012-07-15T14:06:32Z</time>
      </trkpt>
      <trkpt lat="42.9454" lon="1.4619">
        <ele>720.65</ele>
        <time>2012-07-15T14:06:36Z</time>
      </trkpt>
      <trkpt lat="42.94517" lon="1.4624">
        <ele>715.36</ele>
        <time>2012-07-15T14:06:40Z</time>
      </trkpt>
      <trkpt lat="42.94499" lon="1.46286">
        <ele>711.99</ele>
        <time>2012-07-15T14:06:43Z</time>
      </trkpt>
      <trkpt lat="42.94483" lon="1.46327">
        <ele>708.15</ele>
        <time>2012-07-15T14:06:46Z</time>
      </trkpt>
      <trkpt lat="42.9446" lon="1.4637">
        <ele>704.3</ele>
        <time>2012-07-15T14:06:50Z</time>
      </trkpt>
      <trkpt lat="42.9443" lon="1.46408">
        <ele>700.94</ele>
        <time>2012-07-15T14:06:54Z</time>
      </trkpt>
      <trkpt lat="42.94411" lon="1.46444">
        <ele>698.53</ele>
        <time>2012-07-15T14:06:58Z</time>
      </trkpt>
      <trkpt lat="42.94429" lon="1.46439">
        <ele>697.09</ele>
        <time>2012-07-15T14:07:05Z</time>
      </trkpt>
      <trkpt lat="42.94453" lon="1.46403">
        <ele>693.73</ele>
        <time>2012-07-15T14:07:10Z</time>
      </trkpt>
      <trkpt lat="42.94491" lon="1.46376">
        <ele>689.88</ele>
        <time>2012-07-15T14:07:14Z</time>
      </trkpt>
      <trkpt lat="42.94522" lon="1.4634">
        <ele>686.52</ele>
        <time>2012-07-15T14:07:18Z</time>
      </trkpt>
      <trkpt lat="42.94545" lon="1.46308">
        <ele>683.15</ele>
        <time>2012-07-15T14:07:21Z</time>
      </trkpt>
      <trkpt lat="42.94571" lon="1.46277">
        <ele>679.31</ele>
        <time>2012-07-15T14:07:24Z</time>
      </trkpt>
      <trkpt lat="42.94599" lon="1.46251">
        <ele>675.46</ele>
        <time>2012-07-15T14:07:27Z</time>
      </trkpt>
      <trkpt lat="42.94629" lon="1.46225">
        <ele>672.58</ele>
        <time>2012-07-15T14:07:30Z</time>
      </trkpt>
      <trkpt lat="42.94654" lon="1.46197">
        <ele>670.18</ele>
        <time>2012-07-15T14:07:33Z</time>
      </trkpt>
      <trkpt lat="42.94669" lon="1.4615">
        <ele>667.29</ele>
        <time>2012-07-15T14:07:37Z</time>
      </trkpt>
      <trkpt lat="42.94663" lon="1.46091">
        <ele>662.97</ele>
        <time>2012-07-15T14:07:41Z</time>
      </trkpt>
      <trkpt lat="42.94642" lon="1.46041">
        <ele>659.12</ele>
        <time>2012-07-15T14:07:45Z</time>
      </trkpt>
      <trkpt lat="42.94614" lon="1.46012">
        <ele>654.8</ele>
        <time>2012-07-15T14:07:48Z</time>
      </trkpt>
      <trkpt lat="42.94593" lon="1.45976">
        <ele>650.47</ele>
        <time>2012-07-15T14:07:51Z</time>
      </trkpt>
      <trkpt lat="42.94583" lon="1.4593">
        <ele>647.59</ele>
        <time>2012-07-15T14:07:54Z</time>
      </trkpt>
      <trkpt lat="42.94577" lon="1.45886">
        <ele>646.62</ele>
        <time>2012-07-15T14:07:58Z</time>
      </trkpt>
      <trkpt lat="42.94573" lon="1.4585">
        <ele>646.14</ele>
        <time>2012-07-15T14:08:04Z</time>
      </trkpt>
      <trkpt lat="42.94593" lon="1.45846">
        <ele>649.51</ele>
        <time>2012-07-15T14:08:14Z</time>
      </trkpt>
      <trkpt lat="42.94603" lon="1.45885">
        <ele>653.35</ele>
        <time>2012-07-15T14:08:27Z</time>
      </trkpt>
      <trkpt lat="42.94623" lon="1.45918">
        <ele>657.68</ele>
        <time>2012-07-15T14:08:42Z</time>
      </trkpt>
      <trkpt lat="42.94643" lon="1.45954">
        <ele>661.52</ele>
        <time>2012-07-15T14:08:58Z</time>
      </trkpt>
      <trkpt lat="42.94676" lon="1.4597">
        <ele>665.37</ele>
        <time>2012-07-15T14:09:14Z</time>
      </trkpt>
      <trkpt lat="42.94704" lon="1.45987">
        <ele>668.73</ele>
        <time>2012-07-15T14:09:31Z</time>
      </trkpt>
      <trkpt lat="42.94725" lon="1.46019">
        <ele>672.1</ele>
        <time>2012-07-15T14:09:54Z</time>
      </trkpt>
      <trkpt lat="42.94742" lon="1.46056">
        <ele>671.62</ele>
        <time>2012-07-15T14:10:08Z</time>
      </trkpt>
      <trkpt lat="42.94762" lon="1.46092">
        <ele>671.62</ele>
        <time>2012-07-15T14:10:22Z</time>
      </trkpt>
      <trkpt lat="42.94788" lon="1.46124">
        <ele>674.5</ele>
        <time>2012-07-15T14:10:38Z</time>
      </trkpt>
      <trkpt lat="42.94803" lon="1.46163">
        <ele>678.35</ele>
        <time>2012-07-15T14:10:58Z</time>
      </trkpt>
      <trkpt lat="42.94805" lon="1.46204">
        <ele>682.19</ele>
        <time>2012-07-15T14:11:16Z</time>
      </trkpt>
      <trkpt lat="42.94815" lon="1.46241">
        <ele>686.04</ele>
        <time>2012-07-15T14:11:37Z</time>
      </trkpt>
      <trkpt lat="42.94826" lon="1.46302">
        <ele>689.4</ele>
        <time>2012-07-15T14:12:00Z</time>
      </trkpt>
      <trkpt lat="42.94793" lon="1.46338">
        <ele>694.69</ele>
        <time>2012-07-15T14:12:38Z</time>
      </trkpt>
      <trkpt lat="42.94764" lon="1.46397">
        <ele>704.3</ele>
        <time>2012-07-15T14:13:21Z</time>
      </trkpt>
      <trkpt lat="42.94742" lon="1.46449">
        <ele>711.03</ele>
        <time>2012-07-15T14:13:52Z</time>
      </trkpt>
      <trkpt lat="42.94733" lon="1.46512">
        <ele>718.24</ele>
        <time>2012-07-15T14:14:26Z</time>
      </trkpt>
      <trkpt lat="42.94724" lon="1.46563">
        <ele>723.53</ele>
        <time>2012-07-15T14:14:54Z</time>
      </trkpt>
      <trkpt lat="42.94727" lon="1.46606">
        <ele>726.41</ele>
        <time>2012-07-15T14:15:16Z</time>
      </trkpt>
      <trkpt lat="42.94728" lon="1.46653">
        <ele>728.34</ele>
        <time>2012-07-15T14:15:35Z</time>
      </trkpt>
      <trkpt lat="42.94733" lon="1.46672">
        <ele>731.7</ele>
        <time>2012-07-15T14:16:02Z</time>
      </trkpt>
      <trkpt lat="42.94753" lon="1.46636">
        <ele>737.95</ele>
        <time>2012-07-15T14:16:19Z</time>
      </trkpt>
    </trkseg>
  </trk>
</gpx>